Home > Products > Valid Products > TAF

000
FTUS46 KLOX 031531 AAA
TAFSBP
TAF AMD
KSBP 031531Z 0316/0412 VRB03KT P6SM SCT012
     FM031800 30006KT P6SM SKC
     FM032100 30015G25KT P6SM SKC
     FM040200 30012KT P6SM SKC
     FM040500 30005KT P6SM SKC
     FM040700 VRB03KT P6SM BKN012
     FM041000 VRB03KT P6SM OVC008=



000
FTUS46 KLOX 031445 AAB
TAFLAX
TAF AMD
KLAX 031445Z 0315/0418 10005KT P6SM SCT020
      TEMPO 0315/0317 BKN020
     FM031700 24007KT P6SM SCT020
     FM032000 26012KT P6SM SKC
     FM040300 26007KT P6SM SKC
     FM040900 VRB03KT P6SM BKN012
     FM041700 23006KT P6SM SCT015=



000
FTUS46 KLOX 031445 AAB
TAFLAX
TAF AMD
KLAX 031445Z 0315/0418 10005KT P6SM SCT020
      TEMPO 0315/0317 BKN020
     FM031700 24007KT P6SM SCT020
     FM032000 26012KT P6SM SKC
     FM040300 26007KT P6SM SKC
     FM040900 VRB03KT P6SM BKN012
     FM041700 23006KT P6SM SCT015=



000
FTUS46 KLOX 031329 AAA
TAFLAX
TAF AMD
KLAX 031329Z 0313/0418 VRB03KT P6SM SCT015
      TEMPO 0313/0317 BKN015
     FM031700 24007KT P6SM SCT020
     FM032000 26012KT P6SM SKC
     FM040300 26007KT P6SM SKC
     FM040900 VRB03KT P6SM BKN012
     FM041700 23006KT P6SM SCT015=



000
FTUS46 KLOX 031132
TAFVNY
TAF
KVNY 031132Z 0312/0412 VRB03KT P6SM SKC
     FM032000 17008KT P6SM SKC
     FM040000 12006KT P6SM SKC
     FM040400 VRB03KT P6SM SKC
     FM041100 VRB03KT P6SM BKN008=



000
FTUS46 KLOX 031132
TAFWJF
TAF
KWJF 031132Z 0312/0412 26012KT P6SM SKC
     FM031900 23012KT P6SM SKC
     FM032200 23015G25KT P6SM SKC
     FM040300 24015KT P6SM SKC
     FM040800 25009KT P6SM SKC=



000
FTUS46 KLOX 031132
TAFSMX
TAF
KSMX 031132Z 0312/0412 VRB03KT P6SM OVC012
     FM031400 VRB03KT 6SM BR OVC010
     FM031600 31006KT P6SM SCT014
     FM032000 31014G22KT P6SM SKC
     FM040200 30010KT P6SM SCT009
     FM040400 30006KT P6SM BKN010
     FM040800 VRB03KT 6SM BR OVC006=



000
FTUS46 KLOX 031132
TAFSBA
TAF
KSBA 031132Z 0312/0412 VRB03KT P6SM SKC
     FM031600 15008KT P6SM SKC
     FM032100 25009KT P6SM SKC
     FM032300 25009KT P6SM SKC WS010/34025KT
     FM040300 VRB05KT P6SM SKC WS010/34030KT
     FM040900 VRB03KT P6SM SKC=



000
FTUS46 KLOX 031132
TAFLGB
TAF
KLGB 031132Z 0312/0412 VRB03KT P6SM BKN014
     FM031700 16005KT P6SM SCT015
     FM032200 21008KT P6SM SKC
     FM040000 29008KT P6SM SKC
     FM040400 VRB03KT P6SM SKC
     FM040900 VRB03KT P6SM BKN012=



000
FTUS46 KLOX 031132
TAFBUR
TAF
KBUR 031132Z 0312/0412 VRB03KT P6SM SKC
     FM031900 17008KT P6SM SKC
     FM040200 12007KT P6SM SKC
     FM040500 VRB03KT P6SM SKC
     FM041100 VRB03KT P6SM BKN008=



000
FTUS46 KLOX 031132
TAFLAX
TAF
KLAX 031132Z 0312/0418 VRB03KT P6SM SCT015
     FM031300 VRB03KT P6SM BKN015
     FM031700 24007KT P6SM SCT020
     FM032000 26012KT P6SM SKC
     FM040300 26007KT P6SM SKC
     FM040900 VRB03KT P6SM BKN012
     FM041700 23006KT P6SM SCT015=



000
FTUS46 KLOX 031132
TAFPMD
TAF
KPMD 031132Z 0312/0412 VRB05KT P6SM SKC
     FM031900 25012KT P6SM SKC
     FM032100 25015G25KT P6SM SKC
     FM040300 23014KT P6SM SKC
     FM040700 23008KT P6SM SKC
     FM041000 VRB05KT P6SM SKC=



000
FTUS46 KLOX 031132
TAFPRB
TAF
KPRB 031132Z 0312/0412 VRB03KT P6SM SKC
     FM032000 26007KT P6SM SKC
     FM032200 21015G22KT P6SM SKC
     FM040500 30010KT P6SM SKC
     FM041100 VRB03KT P6SM BKN008=



000
FTUS46 KLOX 031132
TAFSBP
TAF
KSBP 031132Z 0312/0412 31006KT P6SM OVC012
     FM031600 VRB03KT P6SM SCT015
     FM031800 30006KT P6SM SKC
     FM032100 30015G25KT P6SM SKC
     FM040200 30012KT P6SM SKC
     FM040500 30005KT P6SM SKC
     FM040700 VRB03KT P6SM BKN012
     FM041000 VRB03KT P6SM OVC008=



000
FTUS46 KLOX 031010 AAB
TAFLAX
TAF AMD
KLAX 031010Z 0310/0412 VRB03KT P6SM SKC
     FM031200 VRB03KT P6SM OVC015
     FM031700 24007KT P6SM SCT020
     FM032000 26012KT P6SM SKC
     FM040300 26007KT P6SM SKC
     FM040900 VRB03KT P6SM BKN012=



000
FTUS46 KLOX 031010 AAB
TAFLAX
TAF AMD
KLAX 031010Z 0310/0412 VRB03KT P6SM SKC
     FM031200 VRB03KT P6SM OVC015
     FM031700 24007KT P6SM SCT020
     FM032000 26012KT P6SM SKC
     FM040300 26007KT P6SM SKC
     FM040900 VRB03KT P6SM BKN012=



000
FTUS46 KLOX 031010 AAB
TAFLGB
TAF AMD
KLGB 031010Z 0310/0406 VRB03KT P6SM SKC
     FM031100 VRB03KT P6SM OVC012
     FM031700 16005KT P6SM SCT015
     FM032200 21008KT P6SM SKC=



000
FTUS46 KLOX 030822 AAA
TAFLGB
TAF AMD
KLGB 030822Z 0308/0406 VRB03KT P6SM SKC
     FM031000 VRB03KT P6SM OVC012
     FM031700 16005KT P6SM SCT015
     FM032200 21008KT P6SM SKC=



000
FTUS46 KLOX 030821 AAA
TAFLAX
TAF AMD
KLAX 030821Z 0308/0412 VRB03KT P6SM SKC
     FM031000 VRB03KT P6SM OVC015
     FM031700 24007KT P6SM SCT020
     FM032000 26012KT P6SM SKC
     FM040300 26007KT P6SM SKC
     FM040900 VRB03KT P6SM BKN012=



000
FTUS46 KLOX 030821 AAA
TAFLAX
TAF AMD
KLAX 030821Z 0308/0412 VRB03KT P6SM SKC
     FM031000 VRB03KT P6SM OVC015
     FM031700 24007KT P6SM SCT020
     FM032000 26012KT P6SM SKC
     FM040300 26007KT P6SM SKC
     FM040900 VRB03KT P6SM BKN012=



000
FTUS46 KLOX 030754 AAB
TAFSMX
TAF AMD
KSMX 030754Z 0308/0406 VRB03KT P6SM BKN017
     FM031400 VRB03KT 6SM BR OVC012
     FM031600 31006KT P6SM SCT014
     FM032000 31014G22KT P6SM SKC
     FM040200 30010KT P6SM SCT009
     FM040400 30006KT P6SM BKN010=



000
FTUS46 KLOX 030754 AAB
TAFSMX
TAF AMD
KSMX 030754Z 0308/0406 VRB03KT P6SM BKN017
     FM031400 VRB03KT 6SM BR OVC012
     FM031600 31006KT P6SM SCT014
     FM032000 31014G22KT P6SM SKC
     FM040200 30010KT P6SM SCT009
     FM040400 30006KT P6SM BKN010=



000
FTUS46 KLOX 030703 AAA
TAFSMX
TAF AMD
KSMX 030703Z 0307/0406 VRB03KT P6SM SKC
     FM030800 VRB03KT P6SM OVC012
     FM031000 VRB03KT 5SM BR OVC009
     FM031400 VRB03KT 6SM BR OVC012
     FM031600 31006KT P6SM SCT014
     FM032000 31014G22KT P6SM SKC
     FM040200 30010KT P6SM SCT009
     FM040400 30006KT P6SM BKN010=



000
FTUS46 KLOX 030703 AAA
TAFSMX
TAF AMD
KSMX 030703Z 0307/0406 VRB03KT P6SM SKC
     FM030800 VRB03KT P6SM OVC012
     FM031000 VRB03KT 5SM BR OVC009
     FM031400 VRB03KT 6SM BR OVC012
     FM031600 31006KT P6SM SCT014
     FM032000 31014G22KT P6SM SKC
     FM040200 30010KT P6SM SCT009
     FM040400 30006KT P6SM BKN010=



000
FTUS46 KLOX 030543
TAFSBP
TAF
KSBP 030543Z 0306/0406 30009KT P6SM OVC014
     FM031000 31006KT P6SM OVC010
     FM031600 VRB03KT P6SM SCT010
     FM031800 30006KT P6SM SKC
     FM032100 30015G25KT P6SM SKC
     FM040200 30012KT P6SM SKC
     FM040500 30005KT P6SM SCT010=



000
FTUS46 KLOX 030543
TAFPRB
TAF
KPRB 030543Z 0306/0406 26009KT P6SM SKC
     FM030700 33005KT P6SM SKC
     FM031100 VRB03KT P6SM BKN006
     FM031700 VRB03KT P6SM SKC
     FM032000 26007KT P6SM SKC
     FM032200 21015G22KT P6SM SKC
     FM040500 30010KT P6SM SKC=



000
FTUS46 KLOX 030543
TAFSBA
TAF
KSBA 030543Z 0306/0406 VRB05KT P6SM SKC WS015/34030KT
     FM031100 VRB03KT P6SM SKC
     FM031600 15008KT P6SM SKC
     FM032100 25009KT P6SM SKC
     FM032300 25009KT P6SM SKC WS010/34025KT
     FM040300 VRB05KT P6SM SKC WS010/34030KT=



000
FTUS46 KLOX 030543
TAFWJF
TAF
KWJF 030543Z 0306/0406 26008KT P6SM SKC
     FM031000 VRB05KT P6SM SKC
     FM031900 23012KT P6SM SKC
     FM032200 23015G25KT P6SM SKC
     FM040300 24015KT P6SM SKC=



000
FTUS46 KLOX 030543
TAFLAX
TAF
KLAX 030543Z 0306/0412 22005KT P6SM SKC
     FM030700 VRB03KT P6SM SKC
     FM030900 VRB03KT P6SM BKN010
     FM031200 VRB03KT P6SM OVC013
     FM031700 24007KT P6SM SCT015
     FM032000 26012KT P6SM SKC
     FM040300 26007KT P6SM SKC
     FM040900 VRB03KT P6SM BKN012=



000
FTUS46 KLOX 030543
TAFSMX
TAF
KSMX 030543Z 0306/0406 30006KT P6SM SKC
     FM030630 VRB03KT P6SM OVC012
     FM031000 VRB03KT 5SM BR OVC009
     FM031400 VRB03KT 6SM BR OVC012
     FM031600 31006KT P6SM SCT014
     FM032000 31014G22KT P6SM SKC
     FM040200 30010KT P6SM SCT009
     FM040400 30006KT P6SM BKN010=



000
FTUS46 KLOX 030543
TAFBUR
TAF
KBUR 030543Z 0306/0406 12008KT P6SM SKC
     FM030800 VRB03KT P6SM SKC
     FM031900 17008KT P6SM SKC
     FM040200 12007KT P6SM SKC=



000
FTUS46 KLOX 030543
TAFLGB
TAF
KLGB 030543Z 0306/0406 31005KT P6SM SKC
     FM030700 VRB03KT P6SM SKC
     FM030800 VRB03KT P6SM OVC012
     FM031700 16005KT P6SM SCT015
     FM032200 21008KT P6SM SKC=



000
FTUS46 KLOX 030543
TAFVNY
TAF
KVNY 030543Z 0306/0406 VRB03KT P6SM SKC
     FM032000 17008KT P6SM SKC
     FM040000 12006KT P6SM SKC=



000
FTUS46 KLOX 030543
TAFPMD
TAF
KPMD 030543Z 0306/0406 28008KT P6SM SKC
     FM030700 23007KT P6SM SKC
     FM031000 VRB05KT P6SM SKC
     FM031900 25012KT P6SM SKC
     FM032100 25015G25KT P6SM SKC
     FM040300 23014KT P6SM SKC=



000
FTUS46 KLOX 030543
TAFLAX
TAF
KLAX 030543Z 0306/0412 22005KT P6SM SKC
     FM030700 VRB03KT P6SM SKC
     FM030900 VRB03KT P6SM BKN010
     FM031200 VRB03KT P6SM OVC013
     FM031700 24007KT P6SM SCT015
     FM032000 26012KT P6SM SKC
     FM040300 26007KT P6SM SKC
     FM040900 VRB03KT P6SM BKN012=



000
FTUS46 KLOX 030543
TAFPMD
TAF
KPMD 030543Z 0306/0406 28008KT P6SM SKC
     FM030700 23007KT P6SM SKC
     FM031000 VRB05KT P6SM SKC
     FM031900 25012KT P6SM SKC
     FM032100 25015G25KT P6SM SKC
     FM040300 23014KT P6SM SKC=



000
FTUS46 KLOX 030543
TAFBUR
TAF
KBUR 030543Z 0306/0406 12008KT P6SM SKC
     FM030800 VRB03KT P6SM SKC
     FM031900 17008KT P6SM SKC
     FM040200 12007KT P6SM SKC=



000
FTUS46 KLOX 030543
TAFSBA
TAF
KSBA 030543Z 0306/0406 VRB05KT P6SM SKC WS015/34030KT
     FM031100 VRB03KT P6SM SKC
     FM031600 15008KT P6SM SKC
     FM032100 25009KT P6SM SKC
     FM032300 25009KT P6SM SKC WS010/34025KT
     FM040300 VRB05KT P6SM SKC WS010/34030KT=



000
FTUS46 KLOX 030543
TAFLGB
TAF
KLGB 030543Z 0306/0406 31005KT P6SM SKC
     FM030700 VRB03KT P6SM SKC
     FM030800 VRB03KT P6SM OVC012
     FM031700 16005KT P6SM SCT015
     FM032200 21008KT P6SM SKC=



000
FTUS46 KLOX 030543
TAFSMX
TAF
KSMX 030543Z 0306/0406 30006KT P6SM SKC
     FM030630 VRB03KT P6SM OVC012
     FM031000 VRB03KT 5SM BR OVC009
     FM031400 VRB03KT 6SM BR OVC012
     FM031600 31006KT P6SM SCT014
     FM032000 31014G22KT P6SM SKC
     FM040200 30010KT P6SM SCT009
     FM040400 30006KT P6SM BKN010=



000
FTUS46 KLOX 030543
TAFVNY
TAF
KVNY 030543Z 0306/0406 VRB03KT P6SM SKC
     FM032000 17008KT P6SM SKC
     FM040000 12006KT P6SM SKC=



000
FTUS46 KLOX 030543
TAFWJF
TAF
KWJF 030543Z 0306/0406 26008KT P6SM SKC
     FM031000 VRB05KT P6SM SKC
     FM031900 23012KT P6SM SKC
     FM032200 23015G25KT P6SM SKC
     FM040300 24015KT P6SM SKC=



000
FTUS46 KLOX 030501 AAA
TAFSMX
TAF AMD
KSMX 030501Z 0305/0324 30006KT P6SM SKC
     FM030630 VRB03KT P6SM OVC010
     FM031000 VRB03KT 5SM BR OVC006
     FM031400 VRB03KT 6SM BR OVC010
     FM031600 31006KT P6SM SCT012
     FM032000 31014G22KT P6SM SKC=



000
FTUS46 KLOX 030457 AAB
TAFLAX
TAF AMD
KLAX 030457Z 0305/0406 22005KT P6SM FEW011
     FM030600 VRB03KT P6SM SKC
     FM030900 VRB03KT P6SM OVC009
     FM031200 VRB03KT P6SM OVC013
     FM031700 24007KT P6SM SCT015
     FM032000 26012KT P6SM SKC
     FM040300 26007KT P6SM SKC=



000
FTUS46 KLOX 030457 AAB
TAFLAX
TAF AMD
KLAX 030457Z 0305/0406 22005KT P6SM FEW011
     FM030600 VRB03KT P6SM SKC
     FM030900 VRB03KT P6SM OVC009
     FM031200 VRB03KT P6SM OVC013
     FM031700 24007KT P6SM SCT015
     FM032000 26012KT P6SM SKC
     FM040300 26007KT P6SM SKC=



000
FTUS46 KLOX 030410 AAA
TAFSBP
TAF AMD
KSBP 030410Z 0304/0324 31012KT P6SM OVC015
     FM030800 31006KT P6SM OVC010
     FM031000 VRB03KT 5SM BR OVC006
     FM031600 VRB03KT P6SM SCT010
     FM031800 30006KT P6SM SKC
     FM032100 30015G25KT P6SM SKC=



000
FTUS46 KLOX 030410 AAA
TAFSBP
TAF AMD
KSBP 030410Z 0304/0324 31012KT P6SM OVC015
     FM030800 31006KT P6SM OVC010
     FM031000 VRB03KT 5SM BR OVC006
     FM031600 VRB03KT P6SM SCT010
     FM031800 30006KT P6SM SKC
     FM032100 30015G25KT P6SM SKC=



000
FTUS46 KLOX 030301 AAA
TAFPMD
TAF AMD
KPMD 030301Z 0303/0324 27011KT P6SM SKC
     FM030700 20007KT P6SM SKC
     FM031000 VRB05KT P6SM SKC
     FM031900 27012KT P6SM SKC
     FM032100 27015G25KT P6SM SKC=



000
FTUS46 KLOX 030301 AAA
TAFPMD
TAF AMD
KPMD 030301Z 0303/0324 27011KT P6SM SKC
     FM030700 20007KT P6SM SKC
     FM031000 VRB05KT P6SM SKC
     FM031900 27012KT P6SM SKC
     FM032100 27015G25KT P6SM SKC=



000
FTUS46 KLOX 030301 AAA
TAFPRB
TAF AMD
KPRB 030301Z 0303/0324 28009KT P6SM SKC
     FM030700 33005KT P6SM SKC
     FM031100 VRB03KT P6SM BKN006
     FM031700 VRB03KT P6SM SKC
     FM032000 26007KT P6SM SKC
     FM032200 21015G22KT P6SM SKC=



000
FTUS46 KLOX 030301 AAA
TAFPRB
TAF AMD
KPRB 030301Z 0303/0324 28009KT P6SM SKC
     FM030700 33005KT P6SM SKC
     FM031100 VRB03KT P6SM BKN006
     FM031700 VRB03KT P6SM SKC
     FM032000 26007KT P6SM SKC
     FM032200 21015G22KT P6SM SKC=



000
FTUS46 KLOX 030300 AAA
TAFLAX
TAF AMD
KLAX 030300Z 0303/0406 26013KT P6SM SCT200
     FM030500 VRB03KT P6SM SKC
     FM030700 VRB03KT P6SM OVC009
     FM031000 VRB03KT P6SM OVC013
     FM031700 24007KT P6SM SCT015
     FM032000 26012KT P6SM SKC
     FM040300 26007KT P6SM SKC=



000
FTUS46 KLOX 022326
TAFPMD
TAF
KPMD 022326Z 0300/0324 24016G24KT P6SM SKC
     FM030200 23014KT P6SM SKC
     FM030700 20007KT P6SM SKC
     FM031000 VRB05KT P6SM SKC
     FM031900 27012KT P6SM SKC
     FM032100 27015G25KT P6SM SKC=



000
FTUS46 KLOX 022326
TAFVNY
TAF
KVNY 022326Z 0300/0324 16008KT P6SM SKC
     FM030400 VRB03KT P6SM SKC
     FM031200 VRB03KT P6SM BKN010
     FM031530 VRB03KT P6SM SCT012
     FM032000 17008KT P6SM SKC=



000
FTUS46 KLOX 022326
TAFSBA
TAF
KSBA 022326Z 0300/0324 25009KT P6SM SCT250
     FM030100 24007KT P6SM SKC WS015/34030KT
     FM030300 VRB03KT P6SM SKC WS015/34030KT
     FM031100 VRB03KT P6SM SKC
     FM031600 15008KT P6SM SKC
     FM032100 25009KT P6SM SKC
     FM032300 25009KT P6SM SKC WS010/34025KT=



000
FTUS46 KLOX 022326
TAFWJF
TAF
KWJF 022326Z 0300/0324 23020G28KT P6SM SKC
     FM030200 24015KT P6SM SKC
     FM030500 25008KT P6SM SKC
     FM031000 VRB05KT P6SM SKC
     FM031900 23012KT P6SM SKC
     FM032200 23015G25KT P6SM SKC=



000
FTUS46 KLOX 022326
TAFLAX
TAF
KLAX 022326Z 0300/0406 26013KT P6SM SCT250
     FM030500 VRB03KT P6SM SKC
     FM030700 VRB03KT P6SM OVC009
     FM031000 VRB03KT P6SM OVC013
     FM031700 24007KT P6SM SCT015
     FM032000 26012KT P6SM SKC
     FM040300 26007KT P6SM SKC=



000
FTUS46 KLOX 022326
TAFLGB
TAF
KLGB 022326Z 0300/0324 19008KT P6SM SKC
     FM030100 29007KT P6SM SKC
     FM030500 VRB03KT P6SM SKC
     FM030800 VRB03KT P6SM OVC012
     FM031700 16005KT P6SM SCT015
     FM032200 21008KT P6SM SKC=



000
FTUS46 KLOX 022326
TAFSMX
TAF
KSMX 022326Z 0300/0324 32015KT P6SM SCT250
     FM030300 31010KT P6SM SKC
     FM030500 31006KT P6SM OVC010
     FM031000 VRB03KT 5SM BR OVC006
     FM031400 VRB03KT 6SM BR OVC010
     FM031600 31006KT P6SM SCT012
     FM032000 31014G22KT P6SM SKC=



000
FTUS46 KLOX 022326
TAFSBP
TAF
KSBP 022326Z 0300/0324 31017G25KT P6SM SCT250
     FM030300 31008KT P6SM SKC
     FM030700 31006KT P6SM OVC010
     FM031000 VRB03KT 5SM BR OVC006
     FM031600 VRB03KT P6SM SCT010
     FM031800 30006KT P6SM SKC
     FM032100 30015G25KT P6SM SKC=



000
FTUS46 KLOX 022326
TAFPRB
TAF
KPRB 022326Z 0300/0324 21015G24KT P6SM SCT250
     FM030200 20012KT P6SM SCT250
     FM030500 31007KT P6SM SKC
     FM030700 33005KT P6SM SKC
     FM031100 VRB03KT P6SM BKN006
     FM031700 VRB03KT P6SM SKC
     FM032000 26007KT P6SM SKC
     FM032200 21015G22KT P6SM SKC=



000
FTUS46 KLOX 022326
TAFBUR
TAF
KBUR 022326Z 0300/0324 18009KT P6SM SKC
     FM030300 13007KT P6SM SKC
     FM030600 VRB03KT P6SM SKC
     FM031100 VRB03KT P6SM BKN010
     FM031600 VRB03KT P6SM SCT012
     FM031900 17008KT P6SM SKC=



000
FTUS46 KLOX 022119 AAA
TAFWJF
TAF AMD
KWJF 022119Z 0221/0318 21014KT P6SM SKC
     FM022300 23020G28KT P6SM SKC
     FM030200 24015KT P6SM SKC
     FM030500 25008KT P6SM SKC
     FM031000 VRB03KT P6SM SKC=



000
FTUS46 KLOX 022118 AAA
TAFPMD
TAF AMD
KPMD 022118Z 0221/0318 26012KT P6SM SKC
     FM022300 24018G26KT P6SM SKC
     FM030200 23014KT P6SM SKC
     FM030700 20007KT P6SM SKC
     FM031000 VRB03KT P6SM SKC=



000
FTUS46 KLOX 022118 AAA
TAFPMD
TAF AMD
KPMD 022118Z 0221/0318 26012KT P6SM SKC
     FM022300 24018G26KT P6SM SKC
     FM030200 23014KT P6SM SKC
     FM030700 20007KT P6SM SKC
     FM031000 VRB03KT P6SM SKC=



000
FTUS46 KLOX 022050 AAB
TAFLAX
TAF AMD
KLAX 022050Z 0221/0324 26012KT P6SM SCT250
     FM030500 VRB03KT P6SM SKC
     FM030700 VRB03KT P6SM OVC009
     FM031000 VRB03KT P6SM OVC013
     FM031800 24007KT P6SM SCT015
     FM032000 26012KT P6SM SKC=



000
FTUS46 KLOX 021740 AAA
TAFLAX
TAF AMD
KLAX 021740Z 0218/0324 24007KT P6SM SCT020 SCT250
     FM022000 26012KT P6SM SKC
     FM030500 VRB03KT P6SM SKC
     FM030700 VRB03KT P6SM OVC009
     FM031000 VRB03KT P6SM OVC013
     FM031800 24007KT P6SM SCT015
     FM032000 26012KT P6SM SKC=



000
FTUS46 KLOX 021735
TAFPMD
TAF
KPMD 021735Z 0218/0318 VRB04KT P6SM SKC
     FM022000 24012KT P6SM SKC
     FM022300 24018G26KT P6SM SKC
     FM030200 23014KT P6SM SKC
     FM030700 20007KT P6SM SKC
     FM031000 VRB03KT P6SM SKC=



000
FTUS46 KLOX 021735
TAFLGB
TAF
KLGB 021735Z 0218/0318 VRB04KT P6SM BKN019
     FM021900 19006KT P6SM SKC
     FM030000 30008KT P6SM SKC
     FM030600 VRB03KT P6SM SKC
     FM030800 VRB03KT P6SM OVC012=



000
FTUS46 KLOX 021735
TAFLAX
TAF
KLAX 021735Z 0218/0324 17004KT 6SM HZ BKN018
     FM021900 25007KT P6SM SCT018 SCT250
     FM022000 26012KT P6SM SKC
     FM030500 VRB03KT P6SM SKC
     FM030700 VRB03KT P6SM OVC009
     FM031000 VRB03KT P6SM OVC013
     FM031800 24007KT P6SM SCT015
     FM032000 26012KT P6SM SKC=



000
FTUS46 KLOX 021735
TAFSMX
TAF
KSMX 021735Z 0218/0318 29009KT P6SM SCT014 SCT250
     FM022000 31015KT P6SM SCT250
     FM030300 31010KT P6SM SKC
     FM030500 31006KT P6SM OVC010
     FM031000 VRB03KT 5SM BR OVC004=



000
FTUS46 KLOX 021735
TAFPRB
TAF
KPRB 021735Z 0218/0318 32006KT P6SM SCT250
     FM022100 21010KT P6SM SCT250
     FM022300 21015G24KT P6SM SCT250
     FM030200 20012KT P6SM SKC
     FM030500 31007KT P6SM SKC
     FM030700 33005KT P6SM SKC
     FM031100 VRB03KT P6SM BKN008=



000
FTUS46 KLOX 021735
TAFSBA
TAF
KSBA 021735Z 0218/0318 15009KT P6SM SCT250
     FM022000 24008KT P6SM SCT250
     FM030100 24007KT P6SM SKC WS015/34030KT
     FM030300 VRB03KT P6SM SKC WS015/34030KT
     FM031100 VRB03KT P6SM SKC=



000
FTUS46 KLOX 021735
TAFSBP
TAF
KSBP 021735Z 0218/0318 29012KT P6SM SCT250
     FM022000 31015KT P6SM SCT250
     FM030300 31008KT P6SM SKC
     FM030700 31006KT P6SM OVC010
     FM031000 VRB03KT 5SM BR OVC006=



000
FTUS46 KLOX 021735
TAFSMX
TAF
KSMX 021735Z 0218/0318 29009KT P6SM SCT014 SCT250
     FM022000 31015KT P6SM SCT250
     FM030300 31010KT P6SM SKC
     FM030500 31006KT P6SM OVC010
     FM031000 VRB03KT 5SM BR OVC004=



000
FTUS46 KLOX 021735
TAFPRB
TAF
KPRB 021735Z 0218/0318 32006KT P6SM SCT250
     FM022100 21010KT P6SM SCT250
     FM022300 21015G24KT P6SM SCT250
     FM030200 20012KT P6SM SKC
     FM030500 31007KT P6SM SKC
     FM030700 33005KT P6SM SKC
     FM031100 VRB03KT P6SM BKN008=



000
FTUS46 KLOX 021735
TAFVNY
TAF
KVNY 021735Z 0218/0318 00000KT P6SM SKC
     FM022100 14008KT P6SM SKC
     FM030400 VRB03KT P6SM SKC
     FM031300 VRB03KT P6SM BKN010=



000
FTUS46 KLOX 021735
TAFSBA
TAF
KSBA 021735Z 0218/0318 15009KT P6SM SCT250
     FM022000 24008KT P6SM SCT250
     FM030100 24007KT P6SM SKC WS015/34030KT
     FM030300 VRB03KT P6SM SKC WS015/34030KT
     FM031100 VRB03KT P6SM SKC=



000
FTUS46 KLOX 021735
TAFBUR
TAF
KBUR 021735Z 0218/0318 00000KT P6SM SKC
     FM022000 18010KT P6SM SKC
     FM030300 13007KT P6SM SKC
     FM030600 VRB03KT P6SM SKC
     FM031100 VRB03KT P6SM BKN010=



000
FTUS46 KLOX 021735
TAFWJF
TAF
KWJF 021735Z 0218/0318 VRB04KT P6SM SKC
     FM022000 23012KT P6SM SKC
     FM022300 23020G28KT P6SM SKC
     FM030200 24015KT P6SM SKC
     FM030500 25008KT P6SM SKC
     FM031000 VRB03KT P6SM SKC=



000
FTUS46 KLOX 021539 AAA
TAFSBP
TAF AMD
KSBP 021539Z 0216/0312 32012KT P6SM SCT013
     FM021700 31018KT P6SM SKC
     FM022000 31015KT P6SM SKC
     FM030300 31008KT P6SM SKC
     FM030700 31006KT P6SM OVC010=



000
FTUS46 KLOX 021539 AAA
TAFSMX
TAF AMD
KSMX 021539Z 0216/0312 28006KT P6SM OVC012
     FM021800 32010KT P6SM FEW015
     FM022000 31015KT P6SM SKC
     FM030300 31010KT P6SM SKC
     FM030500 31006KT P6SM OVC010=



000
FTUS46 KLOX 021539 AAA
TAFSBP
TAF AMD
KSBP 021539Z 0216/0312 32012KT P6SM SCT013
     FM021700 31018KT P6SM SKC
     FM022000 31015KT P6SM SKC
     FM030300 31008KT P6SM SKC
     FM030700 31006KT P6SM OVC010=



000
FTUS46 KLOX 021538 AAA
TAFPRB
TAF AMD
KPRB 021538Z 0216/0312 32007KT P6SM SKC
     FM022100 21010KT P6SM SKC
     FM022300 21015G24KT P6SM SKC
     FM030200 20012KT P6SM SKC
     FM030500 31007KT P6SM SKC=



000
FTUS46 KLOX 021450 AAA
TAFLAX
TAF AMD
KLAX 021450Z 0215/0318 24003KT P6SM OVC014
     FM021700 24006KT P6SM SCT015
     FM022000 26012KT P6SM SKC
     FM030500 VRB03KT P6SM SKC
     FM030800 VRB03KT P6SM OVC010
     FM031700 24007KT P6SM SCT015=



000
FTUS46 KLOX 021215 CCA
TAFSMX
TAF COR
KSMX 021215Z 0212/0312 31006KT P6SM OVC008
     FM021800 32010KT P6SM FEW015
     FM022000 31015KT P6SM SKC
     FM030300 31010KT P6SM SKC
     FM030500 31006KT P6SM OVC010=



000
FTUS46 KLOX 021215 CCA
TAFSMX
TAF COR
KSMX 021215Z 0212/0312 31006KT P6SM OVC008
     FM021800 32010KT P6SM FEW015
     FM022000 31015KT P6SM SKC
     FM030300 31010KT P6SM SKC
     FM030500 31006KT P6SM OVC010=



000
FTUS46 KLOX 021135
TAFSBP
TAF
KSBP 021135Z 0212/0312 31006KT P6SM OVC010
     FM021700 31018KT P6SM SKC
     FM022000 31015KT P6SM SKC
     FM030300 31008KT P6SM SKC
     FM030700 31006KT P6SM OVC010=



000
FTUS46 KLOX 021135
TAFPRB
TAF
KPRB 021135Z 0212/0312 VRB03KT P6SM SKC
     FM021300 VRB03KT P6SM OVC006
     FM021600 VRB03KT P6SM SKC
     FM022100 21010KT P6SM SKC
     FM022300 21015G24KT P6SM SKC
     FM030200 20012KT P6SM SKC
     FM030500 31007KT P6SM SKC=



000
FTUS46 KLOX 021135
TAFSMX
TAF
KSMX 021135Z 0212/0312 31006KT P6SM SCT006 OVC012
     FM021800 32010KT P6SM FEW015
     FM022000 31015KT P6SM SKC
     FM030300 31010KT P6SM SKC
     FM030500 31006KT P6SM OVC010=



000
FTUS46 KLOX 021135
TAFVNY
TAF
KVNY 021135Z 0212/0312 VRB03KT P6SM SKC
     FM022100 14008KT P6SM SKC
     FM030400 VRB03KT P6SM SKC=



000
FTUS46 KLOX 021135
TAFLAX
TAF
KLAX 021135Z 0212/0318 VRB03KT P6SM FEW012
     FM021300 VRB03KT P6SM BKN012
     FM021700 24006KT P6SM SCT015
     FM022000 26012KT P6SM SKC
     FM030500 VRB03KT P6SM SKC
     FM030800 VRB03KT P6SM OVC010
     FM031700 24007KT P6SM SCT015=



000
FTUS46 KLOX 021135
TAFPMD
TAF
KPMD 021135Z 0212/0312 VRB03KT P6SM SKC
     FM022100 24012KT P6SM SKC
     FM022300 24018G26KT P6SM SKC
     FM030200 23014KT P6SM SKC
     FM030700 20007KT P6SM SKC=



000
FTUS46 KLOX 021135
TAFSBA
TAF
KSBA 021135Z 0212/0312 VRB03KT P6SM SKC
     FM021700 17007KT P6SM SKC
     FM022000 24008KT P6SM SKC
     FM030300 VRB03KT P6SM SKC=



000
FTUS46 KLOX 021135
TAFBUR
TAF
KBUR 021135Z 0212/0312 VRB03KT P6SM SKC
     FM022000 18010KT P6SM SKC
     FM030300 13007KT P6SM SKC
     FM030600 VRB03KT P6SM SKC=



000
FTUS46 KLOX 021135
TAFLGB
TAF
KLGB 021135Z 0212/0312 VRB03KT P6SM OVC015
     FM021700 19008KT P6SM SKC
     FM030100 30008KT P6SM SKC
     FM030600 VRB03KT P6SM SKC
     FM030900 VRB03KT P6SM OVC012=



000
FTUS46 KLOX 021135
TAFWJF
TAF
KWJF 021135Z 0212/0312 27008KT P6SM SKC
     FM021400 VRB03KT P6SM SKC
     FM022100 23012KT P6SM SKC
     FM022300 23020G28KT P6SM SKC
     FM030200 24015KT P6SM SKC
     FM030500 25008KT P6SM SKC=



000
FTUS46 KLOX 021135
TAFSBP
TAF
KSBP 021135Z 0212/0312 31006KT P6SM OVC010
     FM021700 31018KT P6SM SKC
     FM022000 31015KT P6SM SKC
     FM030300 31008KT P6SM SKC
     FM030700 31006KT P6SM OVC010=



000
FTUS46 KLOX 021135
TAFPRB
TAF
KPRB 021135Z 0212/0312 VRB03KT P6SM SKC
     FM021300 VRB03KT P6SM OVC006
     FM021600 VRB03KT P6SM SKC
     FM022100 21010KT P6SM SKC
     FM022300 21015G24KT P6SM SKC
     FM030200 20012KT P6SM SKC
     FM030500 31007KT P6SM SKC=



000
FTUS46 KLOX 021135
TAFLAX
TAF
KLAX 021135Z 0212/0318 VRB03KT P6SM FEW012
     FM021300 VRB03KT P6SM BKN012
     FM021700 24006KT P6SM SCT015
     FM022000 26012KT P6SM SKC
     FM030500 VRB03KT P6SM SKC
     FM030800 VRB03KT P6SM OVC010
     FM031700 24007KT P6SM SCT015=



000
FTUS46 KLOX 021135
TAFSMX
TAF
KSMX 021135Z 0212/0312 31006KT P6SM SCT006 OVC012
     FM021800 32010KT P6SM FEW015
     FM022000 31015KT P6SM SKC
     FM030300 31010KT P6SM SKC
     FM030500 31006KT P6SM OVC010=



000
FTUS46 KLOX 021135
TAFSBA
TAF
KSBA 021135Z 0212/0312 VRB03KT P6SM SKC
     FM021700 17007KT P6SM SKC
     FM022000 24008KT P6SM SKC
     FM030300 VRB03KT P6SM SKC=



000
FTUS46 KLOX 021135
TAFBUR
TAF
KBUR 021135Z 0212/0312 VRB03KT P6SM SKC
     FM022000 18010KT P6SM SKC
     FM030300 13007KT P6SM SKC
     FM030600 VRB03KT P6SM SKC=



000
FTUS46 KLOX 021135
TAFPMD
TAF
KPMD 021135Z 0212/0312 VRB03KT P6SM SKC
     FM022100 24012KT P6SM SKC
     FM022300 24018G26KT P6SM SKC
     FM030200 23014KT P6SM SKC
     FM030700 20007KT P6SM SKC=



000
FTUS46 KLOX 021135
TAFVNY
TAF
KVNY 021135Z 0212/0312 VRB03KT P6SM SKC
     FM022100 14008KT P6SM SKC
     FM030400 VRB03KT P6SM SKC=



000
FTUS46 KLOX 021135
TAFLGB
TAF
KLGB 021135Z 0212/0312 VRB03KT P6SM OVC015
     FM021700 19008KT P6SM SKC
     FM030100 30008KT P6SM SKC
     FM030600 VRB03KT P6SM SKC
     FM030900 VRB03KT P6SM OVC012=



000
FTUS46 KLOX 021135
TAFWJF
TAF
KWJF 021135Z 0212/0312 27008KT P6SM SKC
     FM021400 VRB03KT P6SM SKC
     FM022100 23012KT P6SM SKC
     FM022300 23020G28KT P6SM SKC
     FM030200 24015KT P6SM SKC
     FM030500 25008KT P6SM SKC=



000
FTUS46 KLOX 021001 AAC
TAFSBP
TAF AMD
KSBP 021001Z 0210/0306 31006KT P6SM OVC010
     FM021700 31006KT P6SM FEW010 SCT250
     FM022000 31015KT P6SM SCT250
     FM030400 31010KT P6SM SKC=



000
FTUS46 KLOX 020902 AAA
TAFLGB
TAF AMD
KLGB 020902Z 0209/0306 VRB03KT P6SM SKC
     FM021100 VRB03KT P6SM OVC013
     FM021700 18006KT P6SM SCT250
     FM022300 29008KT P6SM SCT250
     FM030500 VRB03KT P6SM SKC=



000
FTUS46 KLOX 020850 AAB
TAFLAX
TAF AMD
KLAX 020850Z 0209/0312 VRB03KT P6SM SCT012
     FM021200 VRB03KT P6SM OVC012
     FM021800 25010KT P6SM SCT250
     FM030500 VRB03KT P6SM SKC
     FM030800 VRB03KT P6SM OVC015=



000
FTUS46 KLOX 020850 AAB
TAFLAX
TAF AMD
KLAX 020850Z 0209/0312 VRB03KT P6SM SCT012
     FM021200 VRB03KT P6SM OVC012
     FM021800 25010KT P6SM SCT250
     FM030500 VRB03KT P6SM SKC
     FM030800 VRB03KT P6SM OVC015=



000
FTUS46 KLOX 020800 AAB
TAFSMX
TAF AMD
KSMX 020800Z 0208/0306 VRB03KT 6SM BR BKN012
     FM020900 VRB03KT 4SM BR OVC008
     FM021100 VRB03KT 1SM BR OVC002
     FM021500 VRB03KT 5SM BR BKN007
     FM021700 30006KT P6SM SCT250
     FM022000 31015KT P6SM SCT250
     FM030200 30010KT P6SM SKC
     FM030500 VRB03KT P6SM SKC=



000
FTUS46 KLOX 020800 AAB
TAFSMX
TAF AMD
KSMX 020800Z 0208/0306 VRB03KT 6SM BR BKN012
     FM020900 VRB03KT 4SM BR OVC008
     FM021100 VRB03KT 1SM BR OVC002
     FM021500 VRB03KT 5SM BR BKN007
     FM021700 30006KT P6SM SCT250
     FM022000 31015KT P6SM SCT250
     FM030200 30010KT P6SM SKC
     FM030500 VRB03KT P6SM SKC=



000
FTUS46 KLOX 020759 AAB
TAFSBP
TAF AMD
KSBP 020759Z 0208/0306 31006KT P6SM BKN010
     FM020900 31006KT 6SM BR BKN006
     FM021100 VRB03KT 1SM BR OVC002
     FM021600 VRB04KT 5SM BR BKN007
     FM021700 31006KT P6SM FEW010 SCT250
     FM022000 31015KT P6SM SCT250
     FM030400 31010KT P6SM SKC=



000
FTUS46 KLOX 020759 AAB
TAFSBP
TAF AMD
KSBP 020759Z 0208/0306 31006KT P6SM BKN010
     FM020900 31006KT 6SM BR BKN006
     FM021100 VRB03KT 1SM BR OVC002
     FM021600 VRB04KT 5SM BR BKN007
     FM021700 31006KT P6SM FEW010 SCT250
     FM022000 31015KT P6SM SCT250
     FM030400 31010KT P6SM SKC=



000
FTUS46 KLOX 020717 AAA
TAFSBP
TAF AMD
KSBP 020717Z 0207/0306 31006KT P6SM SKC
     FM020800 31006KT 6SM BR BKN006
     FM021100 VRB03KT 1SM BR OVC002
     FM021600 VRB04KT 5SM BR BKN007
     FM021700 31006KT P6SM FEW010 SCT250
     FM022000 31015KT P6SM SCT250
     FM030400 31010KT P6SM SKC=



000
FTUS46 KLOX 020717 AAA
TAFSMX
TAF AMD
KSMX 020717Z 0207/0306 VRB03KT P6SM SKC
     FM020830 30006KT 4SM BR OVC004
     FM021100 VRB03KT 1SM BR OVC002
     FM021500 VRB03KT 5SM BR BKN007
     FM021700 30006KT P6SM SCT250
     FM022000 31015KT P6SM SCT250
     FM030200 30010KT P6SM SKC
     FM030500 VRB03KT P6SM SKC=



000
FTUS46 KLOX 020717 AAA
TAFLAX
TAF AMD
KLAX 020717Z 0207/0312 24006KT P6SM BKN012
     FM020900 VRB03KT 6SM BR BKN008
     FM021200 VRB03KT P6SM OVC012
     FM021800 25010KT P6SM SCT250
     FM030500 VRB03KT P6SM SKC
     FM030800 VRB03KT P6SM OVC015=



000
FTUS46 KLOX 020717 AAA
TAFSBP
TAF AMD
KSBP 020717Z 0207/0306 31006KT P6SM SKC
     FM020800 31006KT 6SM BR BKN006
     FM021100 VRB03KT 1SM BR OVC002
     FM021600 VRB04KT 5SM BR BKN007
     FM021700 31006KT P6SM FEW010 SCT250
     FM022000 31015KT P6SM SCT250
     FM030400 31010KT P6SM SKC=



000
FTUS46 KLOX 020717 AAA
TAFLAX
TAF AMD
KLAX 020717Z 0207/0312 24006KT P6SM BKN012
     FM020900 VRB03KT 6SM BR BKN008
     FM021200 VRB03KT P6SM OVC012
     FM021800 25010KT P6SM SCT250
     FM030500 VRB03KT P6SM SKC
     FM030800 VRB03KT P6SM OVC015=



000
FTUS46 KLOX 020717 AAA
TAFSMX
TAF AMD
KSMX 020717Z 0207/0306 VRB03KT P6SM SKC
     FM020830 30006KT 4SM BR OVC004
     FM021100 VRB03KT 1SM BR OVC002
     FM021500 VRB03KT 5SM BR BKN007
     FM021700 30006KT P6SM SCT250
     FM022000 31015KT P6SM SCT250
     FM030200 30010KT P6SM SKC
     FM030500 VRB03KT P6SM SKC=



000
FTUS46 KLOX 020533
TAFSBP
TAF
KSBP 020533Z 0206/0306 31006KT P6SM SKC
     FM020700 31006KT 6SM BR BKN007
     FM020900 VRB03KT 4SM BR OVC004
     FM021100 VRB03KT 1SM BR OVC002
     FM021600 VRB04KT 5SM BR BKN007
     FM021700 31006KT P6SM FEW010 SCT250
     FM022000 31015KT P6SM SCT250
     FM030400 31010KT P6SM SKC=



000
FTUS46 KLOX 020533
TAFVNY
TAF
KVNY 020533Z 0206/0306 VRB03KT P6SM SCT250
     FM021100 VRB03KT 3SM BR BKN005
     FM021700 VRB05KT P6SM FEW010 SCT250
     FM022000 13008KT P6SM SCT250
     FM030500 VRB03KT P6SM SKC=



000
FTUS46 KLOX 020533
TAFPRB
TAF
KPRB 020533Z 0206/0306 30008KT P6SM SKC
     FM020900 VRB03KT P6SM SKC
     FM021700 33006KT P6SM SCT250
     FM022300 22012KT P6SM SCT250
     FM030400 30010KT P6SM SKC=



000
FTUS46 KLOX 020533
TAFSMX
TAF
KSMX 020533Z 0206/0306 VRB03KT P6SM SKC
     FM020700 30006KT 6SM BR BKN007
     FM020900 30005KT 4SM BR OVC004
     FM021100 VRB03KT 1SM BR OVC002
     FM021500 VRB03KT 5SM BR BKN007
     FM021700 30006KT P6SM SCT250
     FM022000 31015KT P6SM SCT250
     FM030200 30010KT P6SM SKC
     FM030500 VRB03KT P6SM SKC=



000
FTUS46 KLOX 020533
TAFLGB
TAF
KLGB 020533Z 0206/0306 29008KT P6SM FEW012 SCT250
     FM020900 VRB03KT P6SM OVC013
     FM021700 18006KT P6SM SCT250
     FM022300 29008KT P6SM SCT250
     FM030500 VRB03KT P6SM SKC=



000
FTUS46 KLOX 020533
TAFLAX
TAF
KLAX 020533Z 0206/0312 24006KT P6SM FEW012
     FM020800 VRB03KT 6SM BR BKN008
     FM021200 VRB03KT P6SM OVC012
     FM021800 25010KT P6SM SCT250
     FM030500 VRB03KT P6SM SKC
     FM030800 VRB03KT P6SM OVC015=



000
FTUS46 KLOX 020533
TAFSBA
TAF
KSBA 020533Z 0206/0306 VRB03KT P6SM SKC
     FM021700 17005KT P6SM SCT250
     FM022200 24008KT P6SM SCT250
     FM030300 VRB03KT P6SM SKC=



000
FTUS46 KLOX 020533
TAFBUR
TAF
KBUR 020533Z 0206/0306 12006KT P6SM SCT250
     FM021100 VRB03KT 5SM BR BKN006
     FM021700 VRB03KT P6SM SCT250
     FM022000 18010KT P6SM SCT250
     FM030400 12008KT P6SM SKC=



000
FTUS46 KLOX 020533
TAFWJF
TAF
KWJF 020533Z 0206/0306 25008KT P6SM FEW250
     FM021400 VRB05KT P6SM SCT250
     FM022200 23015G25KT P6SM SCT250
     FM030300 25015KT P6SM SCT250=



000
FTUS46 KLOX 020533
TAFPMD
TAF
KPMD 020533Z 0206/0306 28010KT P6SM FEW250
     FM020800 20006KT P6SM SKC
     FM021400 VRB05KT P6SM SCT250
     FM022300 24012G22KT P6SM SCT250
     FM030300 25012KT P6SM SCT250=



000
FTUS46 KLOX 020510 AAA
TAFSMX
TAF AMD
KSMX 020510Z 0205/0224 VRB03KT P6SM SKC
     FM020700 30006KT 6SM BR BKN007
     FM020900 30005KT 4SM BR OVC004
     FM021100 VRB03KT 3/4SM BR OVC002
     FM021500 VRB03KT 5SM BR BKN007
     FM021700 30006KT P6SM FEW010 SCT250
     FM022000 31015KT P6SM SCT250=



000
FTUS46 KLOX 020510 AAA
TAFSMX
TAF AMD
KSMX 020510Z 0205/0224 VRB03KT P6SM SKC
     FM020700 30006KT 6SM BR BKN007
     FM020900 30005KT 4SM BR OVC004
     FM021100 VRB03KT 3/4SM BR OVC002
     FM021500 VRB03KT 5SM BR BKN007
     FM021700 30006KT P6SM FEW010 SCT250
     FM022000 31015KT P6SM SCT250=



000
FTUS46 KLOX 020509 AAA
TAFSBP
TAF AMD
KSBP 020509Z 0205/0224 31006KT P6SM SKC
     FM020700 31006KT 6SM BR BKN007
     FM020900 VRB03KT 4SM BR OVC004
     FM021100 VRB03KT 3/4SM BR OVC002
     FM021600 VRB04KT 5SM BR BKN007
     FM021700 31006KT P6SM FEW010 SCT250
     FM022000 31015KT P6SM SCT250=



000
FTUS46 KLOX 020509 AAA
TAFSBP
TAF AMD
KSBP 020509Z 0205/0224 31006KT P6SM SKC
     FM020700 31006KT 6SM BR BKN007
     FM020900 VRB03KT 4SM BR OVC004
     FM021100 VRB03KT 3/4SM BR OVC002
     FM021600 VRB04KT 5SM BR BKN007
     FM021700 31006KT P6SM FEW010 SCT250
     FM022000 31015KT P6SM SCT250=



000
FTUS46 KLOX 020434 AAD
TAFLAX
TAF AMD
KLAX 020434Z 0205/0306 24006KT P6SM FEW012 SCT250
     FM020800 VRB03KT 6SM BR BKN008
     FM021100 VRB03KT P6SM OVC012
     FM021800 25008KT P6SM SCT250
     FM022100 26012KT P6SM SCT250
     FM030400 25008KT P6SM SCT010 SCT250=



000
FTUS46 KLOX 020434 AAD
TAFLAX
TAF AMD
KLAX 020434Z 0205/0306 24006KT P6SM FEW012 SCT250
     FM020800 VRB03KT 6SM BR BKN008
     FM021100 VRB03KT P6SM OVC012
     FM021800 25008KT P6SM SCT250
     FM022100 26012KT P6SM SCT250
     FM030400 25008KT P6SM SCT010 SCT250=



000
FTUS46 KLOX 020409 AAC
TAFLAX
TAF AMD
KLAX 020409Z 0204/0306 24010KT P6SM FEW012 SCT250
     FM020530 25007KT 6SM BR BKN007
     FM020800 VRB03KT P6SM OVC011
     FM021800 25008KT P6SM SCT011 SCT250
     FM022100 26012KT P6SM SCT250
     FM030400 25008KT P6SM SCT010 SCT250=



000
FTUS46 KLOX 020408 AAA
TAFPMD
TAF AMD
KPMD 020408Z 0204/0224 26010KT P6SM FEW250
     FM020700 19005KT P6SM SKC
     FM021400 VRB06KT P6SM SCT250
     FM022300 24015G25KT P6SM SCT250=



000
FTUS46 KLOX 020339 AAA
TAFPRB
TAF AMD
KPRB 020339Z 0204/0224 21012KT P6SM SKC
     FM020500 29010KT P6SM SKC
     FM020900 VRB03KT P6SM SKC
     FM021200 VRB03KT 4SM BR VCFG BKN004
     FM021700 33005KT P6SM SCT250
     FM022300 22012KT P6SM SCT250=



000
FTUS46 KLOX 020339 AAA
TAFPRB
TAF AMD
KPRB 020339Z 0204/0224 21012KT P6SM SKC
     FM020500 29010KT P6SM SKC
     FM020900 VRB03KT P6SM SKC
     FM021200 VRB03KT 4SM BR VCFG BKN004
     FM021700 33005KT P6SM SCT250
     FM022300 22012KT P6SM SCT250=



000
FTUS46 KLOX 020301 AAA
TAFWJF
TAF AMD
KWJF 020301Z 0203/0224 26012KT P6SM FEW250
     FM020900 25008KT P6SM SKC
     FM022200 23015G25KT P6SM SCT250=



000
FTUS46 KLOX 020300 AAB
TAFLAX
TAF AMD
KLAX 020300Z 0203/0306 24010KT P6SM FEW012 SCT250
      TEMPO 0203/0205 BKN012
     FM020500 25007KT 6SM BR BKN007
     FM020800 VRB03KT P6SM OVC011
     FM021800 25008KT P6SM SCT011 SCT250
     FM022100 26012KT P6SM SCT250
     FM030400 25008KT P6SM SCT010 SCT250=



000
FTUS46 KLOX 020300 AAB
TAFLAX
TAF AMD
KLAX 020300Z 0203/0306 24010KT P6SM FEW012 SCT250
      TEMPO 0203/0205 BKN012
     FM020500 25007KT 6SM BR BKN007
     FM020800 VRB03KT P6SM OVC011
     FM021800 25008KT P6SM SCT011 SCT250
     FM022100 26012KT P6SM SCT250
     FM030400 25008KT P6SM SCT010 SCT250=



000
FTUS46 KLOX 020140 AAA
TAFLAX
TAF AMD
KLAX 020140Z 0202/0306 25012KT P6SM FEW012 SCT250
      TEMPO 0202/0203 BKN012
     FM020500 25007KT 6SM BR BKN007
     FM020900 VRB03KT P6SM OVC011
     FM021800 25008KT P6SM SCT011 SCT250
     FM022100 26012KT P6SM SCT250
     FM030400 25008KT P6SM SCT010 SCT250=



000
FTUS46 KLOX 020140 AAA
TAFLAX
TAF AMD
KLAX 020140Z 0202/0306 25012KT P6SM FEW012 SCT250
      TEMPO 0202/0203 BKN012
     FM020500 25007KT 6SM BR BKN007
     FM020900 VRB03KT P6SM OVC011
     FM021800 25008KT P6SM SCT011 SCT250
     FM022100 26012KT P6SM SCT250
     FM030400 25008KT P6SM SCT010 SCT250=



000
FTUS46 KLOX 012353
TAFPRB
TAF
KPRB 012353Z 0200/0224 21015G22KT P6SM SKC
     FM020330 29010KT P6SM SKC
     FM020900 VRB03KT P6SM SKC
     FM021200 VRB03KT 4SM BR VCFG BKN004
     FM021700 33005KT P6SM SCT250
     FM022300 22012KT P6SM SCT250=



000
FTUS46 KLOX 012353
TAFPRB
TAF
KPRB 012353Z 0200/0224 21015G22KT P6SM SKC
     FM020330 29010KT P6SM SKC
     FM020900 VRB03KT P6SM SKC
     FM021200 VRB03KT 4SM BR VCFG BKN004
     FM021700 33005KT P6SM SCT250
     FM022300 22012KT P6SM SCT250=



000
FTUS46 KLOX 012353
TAFLGB
TAF
KLGB 012353Z 0200/0224 29008KT P6SM FEW012 SCT250
     FM020700 25007KT 6SM BR BKN009
     FM020900 VRB03KT P6SM OVC013
     FM021700 18006KT P6SM SCT011 SCT250
     FM022100 20008KT P6SM SCT250
     FM022300 29008KT P6SM SCT250=



000
FTUS46 KLOX 012353
TAFSBP
TAF
KSBP 012353Z 0200/0224 31015KT P6SM SKC
     FM020300 31008KT P6SM SKC
     FM020500 31006KT 6SM BR BKN007
     FM020800 31005KT 4SM BR OVC004
     FM021030 VRB03KT 3/4SM BR OVC002
     FM021530 VRB04KT 5SM BR BKN007
     FM021700 31006KT P6SM FEW010 SCT250
     FM022000 31015KT P6SM SCT250=



000
FTUS46 KLOX 012353
TAFSMX
TAF
KSMX 012353Z 0200/0224 30015KT P6SM SKC
     FM020300 30008KT P6SM SKC
     FM020500 30006KT 6SM BR BKN007
     FM020800 30005KT 4SM BR OVC004
     FM020930 VRB03KT 3/4SM BR OVC002
     FM021530 VRB03KT 5SM BR BKN007
     FM021700 30006KT P6SM FEW010 SCT250
     FM022000 31015KT P6SM SCT250=



000
FTUS46 KLOX 012353
TAFVNY
TAF
KVNY 012353Z 0200/0224 15007KT P6SM SCT250
     FM020400 12003KT P6SM SCT250
     FM021100 VRB03KT 3SM BR BKN005
     FM021600 VRB05KT P6SM FEW010 SCT250
     FM022000 14008KT P6SM SCT250=



000
FTUS46 KLOX 012353
TAFPMD
TAF
KPMD 012353Z 0200/0224 23014G20KT P6SM FEW090 SCT250
     FM020300 24012KT P6SM FEW250
     FM020700 19005KT P6SM SKC
     FM021400 VRB06KT P6SM SCT250
     FM022300 24015G25KT P6SM SCT250=



000
FTUS46 KLOX 012353
TAFSBA
TAF
KSBA 012353Z 0200/0224 24007KT P6SM SKC
     FM020230 VRB03KT P6SM SKC WS012/34030KT
     FM020800 VRB03KT P6SM SKC
     FM021100 VRB03KT 6SM BR BKN007
     FM021700 17005KT P6SM SCT012 SCT250
     FM022200 24008KT P6SM SCT250=



000
FTUS46 KLOX 012353
TAFWJF
TAF
KWJF 012353Z 0200/0224 22015G23KT P6SM FEW090 SCT250
     FM020400 25012KT P6SM FEW250
     FM020900 25008KT P6SM SKC
     FM022200 23015G25KT P6SM SCT250=



000
FTUS46 KLOX 012353
TAFWJF
TAF
KWJF 012353Z 0200/0224 22015G23KT P6SM FEW090 SCT250
     FM020400 25012KT P6SM FEW250
     FM020900 25008KT P6SM SKC
     FM022200 23015G25KT P6SM SCT250=



000
FTUS46 KLOX 012353
TAFVNY
TAF
KVNY 012353Z 0200/0224 15007KT P6SM SCT250
     FM020400 12003KT P6SM SCT250
     FM021100 VRB03KT 3SM BR BKN005
     FM021600 VRB05KT P6SM FEW010 SCT250
     FM022000 14008KT P6SM SCT250=



000
FTUS46 KLOX 012353
TAFSBA
TAF
KSBA 012353Z 0200/0224 24007KT P6SM SKC
     FM020230 VRB03KT P6SM SKC WS012/34030KT
     FM020800 VRB03KT P6SM SKC
     FM021100 VRB03KT 6SM BR BKN007
     FM021700 17005KT P6SM SCT012 SCT250
     FM022200 24008KT P6SM SCT250=



000
FTUS46 KLOX 012353
TAFSMX
TAF
KSMX 012353Z 0200/0224 30015KT P6SM SKC
     FM020300 30008KT P6SM SKC
     FM020500 30006KT 6SM BR BKN007
     FM020800 30005KT 4SM BR OVC004
     FM020930 VRB03KT 3/4SM BR OVC002
     FM021530 VRB03KT 5SM BR BKN007
     FM021700 30006KT P6SM FEW010 SCT250
     FM022000 31015KT P6SM SCT250=



000
FTUS46 KLOX 012353
TAFPMD
TAF
KPMD 012353Z 0200/0224 23014G20KT P6SM FEW090 SCT250
     FM020300 24012KT P6SM FEW250
     FM020700 19005KT P6SM SKC
     FM021400 VRB06KT P6SM SCT250
     FM022300 24015G25KT P6SM SCT250=



000
FTUS46 KLOX 012353
TAFLGB
TAF
KLGB 012353Z 0200/0224 29008KT P6SM FEW012 SCT250
     FM020700 25007KT 6SM BR BKN009
     FM020900 VRB03KT P6SM OVC013
     FM021700 18006KT P6SM SCT011 SCT250
     FM022100 20008KT P6SM SCT250
     FM022300 29008KT P6SM SCT250=



000
FTUS46 KLOX 012353
TAFSBP
TAF
KSBP 012353Z 0200/0224 31015KT P6SM SKC
     FM020300 31008KT P6SM SKC
     FM020500 31006KT 6SM BR BKN007
     FM020800 31005KT 4SM BR OVC004
     FM021030 VRB03KT 3/4SM BR OVC002
     FM021530 VRB04KT 5SM BR BKN007
     FM021700 31006KT P6SM FEW010 SCT250
     FM022000 31015KT P6SM SCT250=



000
FTUS46 KLOX 012320
TAFLAX
TAF
KLAX 012320Z 0200/0306 25012KT P6SM FEW012 SCT250
      TEMPO 0200/0201 BKN012
     FM020500 25007KT 6SM BR BKN007
     FM020900 VRB03KT P6SM OVC011
     FM021800 25008KT P6SM SCT011 SCT250
     FM022100 26012KT P6SM SCT250
     FM030400 25008KT P6SM SCT010 SCT250=



000
FTUS46 KLOX 012320
TAFBUR
TAF
KBUR 012320Z 0200/0224 18009KT P6SM SCT250
     FM020400 14004KT P6SM SCT250
     FM021000 VRB03KT 5SM BR BKN006
     FM021600 16005KT P6SM FEW010 SCT250
     FM022000 18010KT P6SM SCT250=



000
FTUS46 KLOX 012320
TAFBUR
TAF
KBUR 012320Z 0200/0224 18009KT P6SM SCT250
     FM020400 14004KT P6SM SCT250
     FM021000 VRB03KT 5SM BR BKN006
     FM021600 16005KT P6SM FEW010 SCT250
     FM022000 18010KT P6SM SCT250=



000
FTUS46 KLOX 012320
TAFLAX
TAF
KLAX 012320Z 0200/0306 25012KT P6SM FEW012 SCT250
      TEMPO 0200/0201 BKN012
     FM020500 25007KT 6SM BR BKN007
     FM020900 VRB03KT P6SM OVC011
     FM021800 25008KT P6SM SCT011 SCT250
     FM022100 26012KT P6SM SCT250
     FM030400 25008KT P6SM SCT010 SCT250=



000
FTUS46 KLOX 012254 AAB
TAFWJF
TAF AMD
KWJF 012254Z 0123/0218 21010KT P6SM SKC
     FM020000 25017G25KT P6SM SKC
     FM020400 24012KT P6SM SKC
     FM020900 19005KT P6SM SKC=



000
FTUS46 KLOX 012246 AAA
TAFPRB
TAF AMD
KPRB 012246Z 0123/0218 20008KT P6SM SKC
     FM020000 21015G22KT P6SM SKC
     FM020300 29008KT P6SM SKC
     FM020700 VRB03KT P6SM SKC
     FM021100 VRB03KT P6SM BKN010=



000
FTUS46 KLOX 012121 AAA
TAFWJF
TAF AMD
KWJF 012121Z 0121/0218 24012KT P6SM SKC
     FM012200 25017G25KT P6SM SKC
     FM020400 24012KT P6SM SKC
     FM020900 19005KT P6SM SKC=



000
FTUS46 KLOX 012121 AAA
TAFSMX
TAF AMD
KSMX 012121Z 0121/0218 30015KT P6SM SKC
     FM020300 30007KT 6SM BR BKN007
     FM020900 VRB03KT 1SM BR OVC002
     FM021300 VRB03KT 5SM BR OVC005=



000
FTUS46 KLOX 012034 AAA
TAFLAX
TAF AMD
KLAX 012034Z 0121/0224 25013KT P6SM SKC
     FM020500 25007KT 6SM BR BKN009
     FM020900 VRB03KT 6SM BR OVC012
     FM021800 23006KT P6SM SCT250
     FM022000 26012KT P6SM SCT250=



000
FTUS46 KLOX 011844 AAA
TAFSBA
TAF AMD
KSBA 011844Z 0119/0218 15007KT P6SM SCT009
     FM012000 24007KT P6SM SCT020
     FM020200 VRB03KT P6SM SKC WS012/34030KT
     FM020800 VRB03KT P6SM SKC
     FM021100 VRB03KT P6SM BKN007=



000
FTUS46 KLOX 011737
TAFPRB
TAF
KPRB 011737Z 0118/0218 VRB03KT P6SM SKC
     FM012200 21015G22KT P6SM SKC
     FM020300 29008KT P6SM SKC
     FM020700 VRB03KT P6SM SKC
     FM021100 VRB03KT P6SM BKN010=



000
FTUS46 KLOX 011737
TAFSBA
TAF
KSBA 011737Z 0118/0218 15007KT P6SM BKN009
     FM011900 19007KT P6SM BKN012
     FM012000 24007KT P6SM SCT020
     FM020200 VRB03KT P6SM SKC WS012/34030KT
     FM020800 VRB03KT P6SM SKC
     FM021100 VRB03KT P6SM BKN007=



000
FTUS46 KLOX 011737
TAFLAX
TAF
KLAX 011737Z 0118/0224 VRB05KT P6SM SCT018
     FM011900 25013KT P6SM SKC
     FM020500 25007KT 6SM BR BKN009
     FM020900 VRB03KT 6SM BR OVC012
     FM021800 23006KT P6SM SCT250
     FM022000 26012KT P6SM SCT250=



000
FTUS46 KLOX 011737
TAFWJF
TAF
KWJF 011737Z 0118/0218 26012KT P6SM SKC
     FM012200 25017G25KT P6SM SKC
     FM020400 24012KT P6SM SKC
     FM020900 19005KT P6SM SKC=



000
FTUS46 KLOX 011737
TAFSMX
TAF
KSMX 011737Z 0118/0218 30003KT 6SM BR BKN012
     FM011900 33007KT P6SM SKC
     FM012200 30015KT P6SM SKC
     FM020300 30007KT 6SM BR BKN007
     FM020900 VRB03KT 1SM BR OVC002
     FM021300 VRB03KT 5SM BR OVC005=



000
FTUS46 KLOX 011737
TAFLGB
TAF
KLGB 011737Z 0118/0218 14006KT P6SM SKC
     FM011900 19008KT P6SM SKC
     FM012300 29008KT P6SM SKC
     FM020500 VRB03KT P6SM SKC
     FM020900 VRB03KT P6SM OVC012=



000
FTUS46 KLOX 011737
TAFPMD
TAF
KPMD 011737Z 0118/0218 22010KT P6SM SKC
     FM012200 25017G25KT P6SM SKC
     FM020300 25012KT P6SM SKC
     FM020900 19005KT P6SM SKC=



000
FTUS46 KLOX 011737
TAFVNY
TAF
KVNY 011737Z 0118/0218 15005KT 6SM HZ SKC
     FM011900 15007KT P6SM SKC
     FM020500 VRB03KT P6SM SKC
     FM021100 VRB03KT P6SM BKN007=



000
FTUS46 KLOX 011737
TAFSBP
TAF
KSBP 011737Z 0118/0218 30008KT P6SM SKC
     FM012100 31015KT P6SM SKC
     FM020300 31007KT P6SM SKC
     FM020600 VRB03KT 6SM BR BKN007
     FM021000 VRB03KT 5SM BR OVC002
     FM021600 VRB04KT 6SM HZ BKN005=



000
FTUS46 KLOX 011737
TAFBUR
TAF
KBUR 011737Z 0118/0218 19004KT 6SM HZ SKC
     FM012000 18007KT P6SM SKC
     FM020500 VRB03KT P6SM SKC
     FM021100 VRB03KT P6SM BKN007=



000
FTUS46 KLOX 011701 AAC
TAFSBA
TAF AMD
KSBA 011701Z 0117/0212 15007KT P6SM BKN009
     FM011930 23007KT P6SM SKC
     FM020200 VRB03KT P6SM SKC
     FM021100 VRB03KT P6SM BKN007=



000
FTUS46 KLOX 011701 AAC
TAFSBA
TAF AMD
KSBA 011701Z 0117/0212 15007KT P6SM BKN009
     FM011930 23007KT P6SM SKC
     FM020200 VRB03KT P6SM SKC
     FM021100 VRB03KT P6SM BKN007=



000
FTUS46 KLOX 011627 AAB
TAFLGB
TAF AMD
KLGB 011627Z 0116/0212 VRB03KT P6SM SCT019
     FM011900 19008KT P6SM SKC
     FM012300 29008KT P6SM SKC
     FM020500 VRB03KT P6SM SKC
     FM020900 VRB03KT P6SM OVC012=



000
FTUS46 KLOX 011551 AAA
TAFSBP
TAF AMD
KSBP 011551Z 0116/0212 33007KT P6SM SCT011
     FM011700 31007KT P6SM SKC
     FM012100 31015KT P6SM SKC
     FM020300 31007KT P6SM SKC
     FM020600 VRB03KT 6SM BR BKN007=



000
FTUS46 KLOX 011433 AAB
TAFLAX
TAF AMD
KLAX 011433Z 0115/0218 25007KT P6SM OVC013
     FM011900 25013KT P6SM SKC
     FM020500 25007KT P6SM BKN010
     FM020900 VRB03KT 6SM BR OVC012
     FM021700 VRB03KT P6SM BKN015=



000
FTUS46 KLOX 011433 AAB
TAFLAX
TAF AMD
KLAX 011433Z 0115/0218 25007KT P6SM OVC013
     FM011900 25013KT P6SM SKC
     FM020500 25007KT P6SM BKN010
     FM020900 VRB03KT 6SM BR OVC012
     FM021700 VRB03KT P6SM BKN015=



000
FTUS46 KLOX 011413 AAB
TAFSBA
TAF AMD
KSBA 011413Z 0114/0212 07006KT P6SM SCT010
      TEMPO 0114/0116 BKN010
     FM011900 23007KT P6SM SKC
     FM020200 VRB03KT P6SM SKC
     FM021100 VRB03KT P6SM BKN007=



000
FTUS46 KLOX 011413 AAB
TAFSBA
TAF AMD
KSBA 011413Z 0114/0212 07006KT P6SM SCT010
      TEMPO 0114/0116 BKN010
     FM011900 23007KT P6SM SKC
     FM020200 VRB03KT P6SM SKC
     FM021100 VRB03KT P6SM BKN007=



000
FTUS46 KLOX 011306 AAA
TAFBUR
TAF AMD
KBUR 011306Z 0113/0212 VRB03KT 5SM BR BKN003
     FM011500 VRB03KT P6SM BKN007
     FM011700 17008KT P6SM SKC
     FM020500 VRB03KT P6SM SKC
     FM021000 VRB03KT P6SM BKN007=



000
FTUS46 KLOX 011306 AAA
TAFLGB
TAF AMD
KLGB 011306Z 0113/0212 VRB03KT P6SM OVC012
     FM011800 19008KT P6SM SKC
     FM012300 29008KT P6SM SKC
     FM020500 VRB03KT P6SM SKC
     FM020900 VRB03KT P6SM OVC012=



000
FTUS46 KLOX 011305 AAA
TAFSBA
TAF AMD
KSBA 011305Z 0113/0212 VRB03KT P6SM OVC006
     FM011700 16007KT P6SM BKN010
     FM011900 23007KT P6SM SKC
     FM020200 VRB03KT P6SM SKC
     FM021100 VRB03KT P6SM BKN007=



000
FTUS46 KLOX 011305 AAA
TAFLAX
TAF AMD
KLAX 011305Z 0113/0218 VRB03KT P6SM OVC010
     FM011700 25008KT P6SM BKN012
     FM011900 25013KT P6SM SKC
     FM020500 25007KT P6SM BKN010
     FM020900 VRB03KT 6SM BR OVC012
     FM021700 VRB03KT P6SM BKN015=



000
FTUS46 KLOX 011304 AAA
TAFPRB
TAF AMD
KPRB 011304Z 0113/0212 VRB03KT P6SM SKC
     FM011700 30006KT P6SM SKC
     FM012200 21015G22KT P6SM SKC
     FM020300 29008KT P6SM SKC
     FM020900 VRB03KT P6SM SKC=



000
FTUS46 KLOX 011304 AAA
TAFSMX
TAF AMD
KSMX 011304Z 0113/0212 VRB03KT P6SM BKN006
     FM011800 30006KT P6SM SKC
     FM012200 30015KT P6SM SKC
     FM020300 30007KT 6SM BR BKN007
     FM020900 VRB03KT 4SM BR OVC005=



000
FTUS46 KLOX 011124
TAFLAX
TAF
KLAX 011124Z 0112/0218 26006KT 3SM BR OVC010
     FM011700 25008KT P6SM BKN012
     FM011900 25013KT P6SM SKC
     FM020500 25007KT P6SM BKN010
     FM020900 VRB03KT 6SM BR OVC012
     FM021700 VRB03KT P6SM BKN015=



000
FTUS46 KLOX 011124
TAFPMD
TAF
KPMD 011124Z 0112/0212 23007KT P6SM SCT150
     FM012200 25017G25KT P6SM SKC
     FM020300 25012KT P6SM SKC=



000
FTUS46 KLOX 011124
TAFSBA
TAF
KSBA 011124Z 0112/0212 VRB03KT 6SM BR OVC004
     FM011500 VRB03KT 6SM BR OVC007
     FM011700 16007KT P6SM BKN010
     FM011900 23007KT P6SM SKC
     FM020200 VRB03KT P6SM SKC
     FM021100 VRB03KT P6SM BKN007=



000
FTUS46 KLOX 011124
TAFSBP
TAF
KSBP 011124Z 0112/0212 30006KT P6SM OVC010
     FM011700 31007KT P6SM SCT015
     FM012100 31015KT P6SM SKC
     FM020300 31007KT P6SM SKC
     FM020600 VRB03KT 6SM BR BKN007=



000
FTUS46 KLOX 011124
TAFWJF
TAF
KWJF 011124Z 0112/0212 24007KT P6SM SCT150
     FM012200 25017G25KT P6SM SKC
     FM020400 24012KT P6SM SKC=



000
FTUS46 KLOX 011124
TAFBUR
TAF
KBUR 011124Z 0112/0212 VRB03KT 6SM BR BKN003
     FM011500 VRB03KT P6SM BKN007
     FM011700 17008KT P6SM SKC
     FM020500 VRB03KT P6SM SKC
     FM021000 VRB03KT P6SM BKN007=



000
FTUS46 KLOX 011124
TAFPRB
TAF
KPRB 011124Z 0112/0212 VRB03KT P6SM SKC
     FM011300 VRB03KT 6SM BR OVC005
     FM011700 30006KT P6SM SKC
     FM012200 21015G22KT P6SM SKC
     FM020300 29008KT P6SM SKC
     FM020900 VRB03KT P6SM SKC=



000
FTUS46 KLOX 011124
TAFSMX
TAF
KSMX 011124Z 0112/0212 VRB03KT 6SM BR OVC003
     FM011600 VRB03KT 6SM BR BKN007
     FM011800 30006KT P6SM SKC
     FM012200 30015KT P6SM SKC
     FM020300 30007KT 6SM BR BKN007
     FM020900 VRB03KT 4SM BR OVC005=



000
FTUS46 KLOX 011124
TAFSBP
TAF
KSBP 011124Z 0112/0212 30006KT P6SM OVC010
     FM011700 31007KT P6SM SCT015
     FM012100 31015KT P6SM SKC
     FM020300 31007KT P6SM SKC
     FM020600 VRB03KT 6SM BR BKN007=



000
FTUS46 KLOX 011124
TAFSBA
TAF
KSBA 011124Z 0112/0212 VRB03KT 6SM BR OVC004
     FM011500 VRB03KT 6SM BR OVC007
     FM011700 16007KT P6SM BKN010
     FM011900 23007KT P6SM SKC
     FM020200 VRB03KT P6SM SKC
     FM021100 VRB03KT P6SM BKN007=



000
FTUS46 KLOX 011124
TAFPRB
TAF
KPRB 011124Z 0112/0212 VRB03KT P6SM SKC
     FM011300 VRB03KT 6SM BR OVC005
     FM011700 30006KT P6SM SKC
     FM012200 21015G22KT P6SM SKC
     FM020300 29008KT P6SM SKC
     FM020900 VRB03KT P6SM SKC=



000
FTUS46 KLOX 011124
TAFVNY
TAF
KVNY 011124Z 0112/0212 VRB03KT 5SM BR BKN003
     FM011500 VRB03KT P6SM BKN007
     FM011700 14008KT P6SM SKC
     FM020500 VRB03KT P6SM SKC
     FM021000 VRB03KT P6SM BKN007=



000
FTUS46 KLOX 011124
TAFLGB
TAF
KLGB 011124Z 0112/0212 VRB03KT 5SM BR OVC007
     FM011500 VRB03KT P6SM OVC010
     FM011800 19008KT P6SM SKC
     FM012300 29008KT P6SM SKC
     FM020500 VRB03KT P6SM SKC
     FM020900 VRB03KT P6SM OVC012=



000
FTUS46 KLOX 011124
TAFPMD
TAF
KPMD 011124Z 0112/0212 23007KT P6SM SCT150
     FM012200 25017G25KT P6SM SKC
     FM020300 25012KT P6SM SKC=



000
FTUS46 KLOX 011124
TAFBUR
TAF
KBUR 011124Z 0112/0212 VRB03KT 6SM BR BKN003
     FM011500 VRB03KT P6SM BKN007
     FM011700 17008KT P6SM SKC
     FM020500 VRB03KT P6SM SKC
     FM021000 VRB03KT P6SM BKN007=



000
FTUS46 KLOX 011124
TAFWJF
TAF
KWJF 011124Z 0112/0212 24007KT P6SM SCT150
     FM012200 25017G25KT P6SM SKC
     FM020400 24012KT P6SM SKC=



000
FTUS46 KLOX 011124
TAFLAX
TAF
KLAX 011124Z 0112/0218 26006KT 3SM BR OVC010
     FM011700 25008KT P6SM BKN012
     FM011900 25013KT P6SM SKC
     FM020500 25007KT P6SM BKN010
     FM020900 VRB03KT 6SM BR OVC012
     FM021700 VRB03KT P6SM BKN015=



000
FTUS46 KLOX 011124
TAFSMX
TAF
KSMX 011124Z 0112/0212 VRB03KT 6SM BR OVC003
     FM011600 VRB03KT 6SM BR BKN007
     FM011800 30006KT P6SM SKC
     FM012200 30015KT P6SM SKC
     FM020300 30007KT 6SM BR BKN007
     FM020900 VRB03KT 4SM BR OVC005=



000
FTUS46 KLOX 011124
TAFVNY
TAF
KVNY 011124Z 0112/0212 VRB03KT 5SM BR BKN003
     FM011500 VRB03KT P6SM BKN007
     FM011700 14008KT P6SM SKC
     FM020500 VRB03KT P6SM SKC
     FM021000 VRB03KT P6SM BKN007=



000
FTUS46 KLOX 011124
TAFLGB
TAF
KLGB 011124Z 0112/0212 VRB03KT 5SM BR OVC007
     FM011500 VRB03KT P6SM OVC010
     FM011800 19008KT P6SM SKC
     FM012300 29008KT P6SM SKC
     FM020500 VRB03KT P6SM SKC
     FM020900 VRB03KT P6SM OVC012=



000
FTUS46 KLOX 011105 AAC
TAFLAX
TAF AMD
KLAX 011105Z 0111/0212 26006KT 3SM BR OVC010
     FM011300 VRB03KT 4SM BR OVC012
     FM011700 25008KT P6SM BKN012
     FM011900 25013KT P6SM SKC
     FM020500 25007KT P6SM BKN010
     FM020900 VRB03KT P6SM OVC012=



000
FTUS46 KLOX 011105 AAC
TAFLAX
TAF AMD
KLAX 011105Z 0111/0212 26006KT 3SM BR OVC010
     FM011300 VRB03KT 4SM BR OVC012
     FM011700 25008KT P6SM BKN012
     FM011900 25013KT P6SM SKC
     FM020500 25007KT P6SM BKN010
     FM020900 VRB03KT P6SM OVC012=



000
FTUS46 KLOX 011104 AAC
TAFSBA
TAF AMD
KSBA 011104Z 0111/0206 VRB03KT 6SM BR BKN005
     FM011400 VRB03KT P6SM OVC008
     FM011600 16007KT P6SM BKN010
     FM011900 23007KT P6SM SKC
     FM020200 VRB03KT P6SM SKC=



000
FTUS46 KLOX 011104 AAA
TAFSBP
TAF AMD
KSBP 011104Z 0111/0206 30006KT P6SM OVC010
     FM011700 31006KT P6SM SCT015
     FM012100 31015KT P6SM SKC
     FM020300 31007KT P6SM SKC=



000
FTUS46 KLOX 011104 AAA
TAFSBP
TAF AMD
KSBP 011104Z 0111/0206 30006KT P6SM OVC010
     FM011700 31006KT P6SM SCT015
     FM012100 31015KT P6SM SKC
     FM020300 31007KT P6SM SKC=



000
FTUS46 KLOX 011104 AAC
TAFSBA
TAF AMD
KSBA 011104Z 0111/0206 VRB03KT 6SM BR BKN005
     FM011400 VRB03KT P6SM OVC008
     FM011600 16007KT P6SM BKN010
     FM011900 23007KT P6SM SKC
     FM020200 VRB03KT P6SM SKC=



000
FTUS46 KLOX 011024 AAA
TAFBUR
TAF AMD
KBUR 011024Z 0110/0206 VRB03KT 6SM BR BKN003
     FM011300 VRB03KT P6SM BKN007
     FM011700 17008KT P6SM SKC
     FM020500 VRB03KT P6SM SKC=



000
FTUS46 KLOX 011024 AAA
TAFBUR
TAF AMD
KBUR 011024Z 0110/0206 VRB03KT 6SM BR BKN003
     FM011300 VRB03KT P6SM BKN007
     FM011700 17008KT P6SM SKC
     FM020500 VRB03KT P6SM SKC=



000
FTUS46 KLOX 010854 AAA
TAFSMX
TAF AMD
KSMX 010854Z 0109/0206 VRB03KT 6SM BR OVC004
     FM011100 VRB03KT 4SM BR OVC004
     FM011300 VRB03KT 1SM BR OVC002
     FM011600 VRB03KT 3SM BR BKN007
     FM011800 30006KT P6SM SKC
     FM012200 30015KT P6SM SKC
     FM020300 30007KT P6SM BKN007=



000
FTUS46 KLOX 010854 AAA
TAFSMX
TAF AMD
KSMX 010854Z 0109/0206 VRB03KT 6SM BR OVC004
     FM011100 VRB03KT 4SM BR OVC004
     FM011300 VRB03KT 1SM BR OVC002
     FM011600 VRB03KT 3SM BR BKN007
     FM011800 30006KT P6SM SKC
     FM012200 30015KT P6SM SKC
     FM020300 30007KT P6SM BKN007=



000
FTUS46 KLOX 010854 AAC
TAFLGB
TAF AMD
KLGB 010854Z 0109/0206 31006KT P6SM OVC008
     FM011200 VRB03KT P6SM OVC012
     FM011800 19008KT P6SM SKC
     FM012300 29008KT P6SM SKC
     FM020500 VRB03KT P6SM SKC=



000
FTUS46 KLOX 010853 AAB
TAFSBA
TAF AMD
KSBA 010853Z 0109/0206 VRB03KT P6SM BKN006
     FM011200 VRB03KT P6SM OVC008
     FM011600 16007KT P6SM BKN010
     FM011900 23007KT P6SM SKC
     FM020200 VRB03KT P6SM SKC=



000
FTUS46 KLOX 010853 AAB
TAFLAX
TAF AMD
KLAX 010853Z 0109/0212 26006KT 2SM BR OVC005
     FM011300 VRB03KT 4SM BR OVC008
     FM011700 25008KT P6SM BKN012
     FM011900 25013KT P6SM SKC
     FM020500 25007KT P6SM BKN010
     FM020900 VRB03KT P6SM OVC012=



000
FTUS46 KLOX 010853 AAB
TAFLAX
TAF AMD
KLAX 010853Z 0109/0212 26006KT 2SM BR OVC005
     FM011300 VRB03KT 4SM BR OVC008
     FM011700 25008KT P6SM BKN012
     FM011900 25013KT P6SM SKC
     FM020500 25007KT P6SM BKN010
     FM020900 VRB03KT P6SM OVC012=



000
FTUS46 KLOX 010806 AAB
TAFLGB
TAF AMD
KLGB 010806Z 0108/0206 31006KT P6SM OVC012
     FM011800 19008KT P6SM SKC
     FM012300 29008KT P6SM SKC
     FM020500 VRB03KT P6SM SKC=



000
FTUS46 KLOX 010806 AAA
TAFSBA
TAF AMD
KSBA 010806Z 0108/0206 VRB03KT P6SM SKC
     FM011100 VRB03KT P6SM OVC007
     FM011600 16007KT P6SM BKN010
     FM011900 23007KT P6SM SKC
     FM020200 VRB03KT P6SM SKC=



000
FTUS46 KLOX 010731 AAA
TAFLAX
TAF AMD
KLAX 010731Z 0108/0212 26006KT 2SM BR OVC005
     FM011300 VRB03KT 4SM BR OVC008
     FM011700 25008KT P6SM BKN012
     FM011900 25013KT P6SM SKC
     FM020500 25007KT P6SM BKN010
     FM020900 VRB03KT P6SM OVC012=



000
FTUS46 KLOX 010608 AAA
TAFLGB
TAF AMD
KLGB 010608Z 0106/0206 31006KT P6SM SCT009
     FM010900 VRB03KT P6SM OVC009
     FM011200 VRB03KT P6SM OVC012
     FM011800 19008KT P6SM SKC
     FM012300 29008KT P6SM SKC
     FM020500 VRB03KT P6SM SKC=



000
FTUS46 KLOX 010608 AAA
TAFLGB
TAF AMD
KLGB 010608Z 0106/0206 31006KT P6SM SCT009
     FM010900 VRB03KT P6SM OVC009
     FM011200 VRB03KT P6SM OVC012
     FM011800 19008KT P6SM SKC
     FM012300 29008KT P6SM SKC
     FM020500 VRB03KT P6SM SKC=



000
FTUS46 KLOX 010536
TAFPMD
TAF
KPMD 010536Z 0106/0206 25007KT P6SM SCT150
     FM011100 VRB03KT P6SM SCT150
     FM011700 25007KT P6SM SKC
     FM012200 25017G25KT P6SM SKC
     FM020300 25012KT P6SM SKC=



000
FTUS46 KLOX 010536
TAFSMX
TAF
KSMX 010536Z 0106/0206 VRB03KT P6SM OVC007
     FM010900 VRB03KT 4SM BR OVC004
     FM011200 VRB03KT 1SM BR OVC002
     FM011600 VRB03KT 3SM BR BKN007
     FM011800 30006KT P6SM SKC
     FM012200 30015KT P6SM SKC
     FM020300 30007KT P6SM BKN007=



000
FTUS46 KLOX 010536
TAFSBP
TAF
KSBP 010536Z 0106/0206 30006KT P6SM SKC
     FM010700 VRB03KT P6SM BKN007
     FM011100 VRB03KT 5SM BR OVC005
     FM011700 31006KT P6SM SCT015
     FM012100 31015KT P6SM SKC
     FM020300 31007KT P6SM SKC=



000
FTUS46 KLOX 010536
TAFSBA
TAF
KSBA 010536Z 0106/0206 VRB03KT P6SM SKC
     FM010700 VRB03KT P6SM OVC007
     FM011200 VRB03KT 3SM BR OVC007
     FM011600 16007KT P6SM BKN010
     FM011900 23007KT P6SM SKC
     FM020200 VRB03KT P6SM SKC=



000
FTUS46 KLOX 010536
TAFPRB
TAF
KPRB 010536Z 0106/0206 30007KT P6SM SCT250
     FM011200 VRB03KT 6SM BR OVC005
     FM011700 30006KT P6SM SKC
     FM012200 21015G22KT P6SM SKC
     FM020300 29008KT P6SM SKC=



000
FTUS46 KLOX 010536
TAFLAX
TAF
KLAX 010536Z 0106/0212 25007KT P6SM OVC009
     FM011100 VRB03KT P6SM OVC012
     FM011700 25008KT P6SM BKN015
     FM011900 25013KT P6SM SKC
     FM020500 25007KT P6SM BKN010
     FM020900 VRB03KT P6SM OVC012=



000
FTUS46 KLOX 010536
TAFWJF
TAF
KWJF 010536Z 0106/0206 25012KT P6SM SCT150
     FM011000 VRB03KT P6SM SCT150
     FM011700 25010KT P6SM SKC
     FM012200 25017G25KT P6SM SKC
     FM020400 24012KT P6SM SKC=



000
FTUS46 KLOX 010536
TAFVNY
TAF
KVNY 010536Z 0106/0206 VRB03KT P6SM SKC
     FM011100 VRB03KT P6SM BKN007
     FM011700 14008KT P6SM SKC
     FM020500 VRB03KT P6SM SKC=



000
FTUS46 KLOX 010536
TAFBUR
TAF
KBUR 010536Z 0106/0206 VRB03KT P6SM SKC
     FM011100 VRB03KT P6SM BKN007
     FM011700 17008KT P6SM SKC
     FM020500 VRB03KT P6SM SKC=



000
FTUS46 KLOX 010536
TAFLGB
TAF
KLGB 010536Z 0106/0206 31006KT P6SM SCT009
     FM010700 VRB03KT P6SM OVC009
     FM011100 VRB03KT P6SM OVC012
     FM011800 19008KT P6SM SKC
     FM012300 29008KT P6SM SKC
     FM020500 VRB03KT P6SM SKC=



000
FTUS46 KLOX 010342 AAA
TAFLAX
TAF AMD
KLAX 010342Z 0104/0206 26013KT P6SM OVC008
     FM011100 VRB03KT P6SM OVC012
     FM011900 26008KT P6SM SCT015
     FM012100 26012KT P6SM SCT250
     FM020300 25010KT P6SM FEW250=



000
FTUS46 KLOX 010243 AAA
TAFSMX
TAF AMD
KSMX 010243Z 0103/0124 30007KT P6SM BKN007
     FM010400 30005KT P6SM OVC007
     FM010700 VRB03KT 4SM BR OVC004
     FM011100 VRB03KT 2SM BR OVC002
     FM011800 30004KT P6SM BKN015
     FM012200 30012KT P6SM SCT250=



000
FTUS46 KLOX 010243 AAA
TAFSMX
TAF AMD
KSMX 010243Z 0103/0124 30007KT P6SM BKN007
     FM010400 30005KT P6SM OVC007
     FM010700 VRB03KT 4SM BR OVC004
     FM011100 VRB03KT 2SM BR OVC002
     FM011800 30004KT P6SM BKN015
     FM012200 30012KT P6SM SCT250=



000
FTUS46 KLOX 312330
TAFVNY
TAF
KVNY 312330Z 0100/0124 16010KT P6SM SCT180
     FM010300 11005KT P6SM SKC
     FM011000 VRB03KT P6SM OVC012
     FM011400 VRB03KT 6SM HZ OVC009
     FM012100 15008KT 6SM HZ SCT250=



000
FTUS46 KLOX 312330
TAFSBA
TAF
KSBA 312330Z 0100/0124 22009KT P6SM SCT150
     FM010400 VRB03KT P6SM SCT150
     FM011000 VRB03KT 6SM BR BKN010
     FM011500 11003KT 5SM BR OVC007
     FM011900 19006KT 6SM HZ SCT012
     FM012200 24009KT P6SM SCT250=



000
FTUS46 KLOX 312330
TAFLGB
TAF
KLGB 312330Z 0100/0124 30010KT P6SM SCT100
     FM010500 31006KT P6SM SKC
     FM010600 31004KT P6SM BKN015
     FM010900 VRB03KT P6SM OVC012
     FM011500 VRB03KT 5SM HZ OVC015
     FM012000 20008KT P6SM SCT250=



000
FTUS46 KLOX 312330
TAFWJF
TAF
KWJF 312330Z 0100/0124 22014G23KT P6SM SCT070 BKN120
     FM010300 23014KT P6SM SCT100
     FM011000 25008KT P6SM SCT250
     FM011200 22006KT P6SM SKC
     FM012000 23014G21KT P6SM SKC=



000
FTUS46 KLOX 312330
TAFPMD
TAF
KPMD 312330Z 0100/0124 25015G22KT P6SM SCT080 BKN120
     FM010300 23010KT P6SM SCT100
     FM010800 20007KT P6SM SCT250
     FM011500 VRB05KT P6SM SKC
     FM012100 25011G17KT P6SM SKC=



000
FTUS46 KLOX 312330
TAFPMD
TAF
KPMD 312330Z 0100/0124 25015G22KT P6SM SCT080 BKN120
     FM010300 23010KT P6SM SCT100
     FM010800 20007KT P6SM SCT250
     FM011500 VRB05KT P6SM SKC
     FM012100 25011G17KT P6SM SKC=



000
FTUS46 KLOX 312330
TAFPRB
TAF
KPRB 312330Z 0100/0124 21019G28KT P6SM SCT100
     FM010300 20012KT P6SM SCT150
     FM010500 30007KT P6SM SCT250
     FM011100 VRB03KT P6SM OVC007
     FM011500 32005KT 4SM BR OVC005
     FM012100 23012KT P6SM SCT250=



000
FTUS46 KLOX 312330
TAFLAX
TAF
KLAX 312330Z 0100/0206 26013KT P6SM FEW020 SCT070
     FM010400 VRB03KT P6SM BKN010
     FM010900 VRB03KT P6SM BKN009 BKN012
     FM011200 VRB04KT P6SM OVC012
     FM011900 26008KT P6SM SCT015
     FM012100 26012KT P6SM SCT250
     FM020300 25010KT P6SM FEW250=



000
FTUS46 KLOX 312330
TAFSMX
TAF
KSMX 312330Z 0100/0124 32014KT P6SM SCT150
     FM010400 30005KT P6SM BKN007
     FM010700 VRB03KT 4SM BR OVC004
     FM011100 VRB03KT 2SM BR OVC002
     FM011800 30004KT P6SM BKN015
     FM012200 30012KT P6SM SCT250=



000
FTUS46 KLOX 312330
TAFBUR
TAF
KBUR 312330Z 0100/0124 18007KT P6SM SCT180
     FM010400 14006KT P6SM SKC
     FM010900 VRB03KT P6SM OVC015
     FM011400 VRB03KT 6SM HZ OVC009
     FM012100 17008KT 6SM HZ SCT250=



000
FTUS46 KLOX 312330
TAFSBP
TAF
KSBP 312330Z 0100/0124 30014KT P6SM SCT150
     FM010300 31009KT P6SM BKN009
     FM010600 30006KT P6SM OVC007
     FM011000 VRB03KT 5SM BR OVC006
     FM011800 31005KT P6SM SCT015
     FM012100 31012KT P6SM SCT250=



000
FTUS46 KLOX 312330
TAFBUR
TAF
KBUR 312330Z 0100/0124 18007KT P6SM SCT180
     FM010400 14006KT P6SM SKC
     FM010900 VRB03KT P6SM OVC015
     FM011400 VRB03KT 6SM HZ OVC009
     FM012100 17008KT 6SM HZ SCT250=



000
FTUS46 KLOX 312330
TAFSMX
TAF
KSMX 312330Z 0100/0124 32014KT P6SM SCT150
     FM010400 30005KT P6SM BKN007
     FM010700 VRB03KT 4SM BR OVC004
     FM011100 VRB03KT 2SM BR OVC002
     FM011800 30004KT P6SM BKN015
     FM012200 30012KT P6SM SCT250=



000
FTUS46 KLOX 312330
TAFSBA
TAF
KSBA 312330Z 0100/0124 22009KT P6SM SCT150
     FM010400 VRB03KT P6SM SCT150
     FM011000 VRB03KT 6SM BR BKN010
     FM011500 11003KT 5SM BR OVC007
     FM011900 19006KT 6SM HZ SCT012
     FM012200 24009KT P6SM SCT250=



000
FTUS46 KLOX 312330
TAFVNY
TAF
KVNY 312330Z 0100/0124 16010KT P6SM SCT180
     FM010300 11005KT P6SM SKC
     FM011000 VRB03KT P6SM OVC012
     FM011400 VRB03KT 6SM HZ OVC009
     FM012100 15008KT 6SM HZ SCT250=



000
FTUS46 KLOX 312330
TAFWJF
TAF
KWJF 312330Z 0100/0124 22014G23KT P6SM SCT070 BKN120
     FM010300 23014KT P6SM SCT100
     FM011000 25008KT P6SM SCT250
     FM011200 22006KT P6SM SKC
     FM012000 23014G21KT P6SM SKC=



000
FTUS46 KLOX 312330
TAFLAX
TAF
KLAX 312330Z 0100/0206 26013KT P6SM FEW020 SCT070
     FM010400 VRB03KT P6SM BKN010
     FM010900 VRB03KT P6SM BKN009 BKN012
     FM011200 VRB04KT P6SM OVC012
     FM011900 26008KT P6SM SCT015
     FM012100 26012KT P6SM SCT250
     FM020300 25010KT P6SM FEW250=



000
FTUS46 KLOX 312330
TAFPRB
TAF
KPRB 312330Z 0100/0124 21019G28KT P6SM SCT100
     FM010300 20012KT P6SM SCT150
     FM010500 30007KT P6SM SCT250
     FM011100 VRB03KT P6SM OVC007
     FM011500 32005KT 4SM BR OVC005
     FM012100 23012KT P6SM SCT250=



000
FTUS46 KLOX 312330
TAFLGB
TAF
KLGB 312330Z 0100/0124 30010KT P6SM SCT100
     FM010500 31006KT P6SM SKC
     FM010600 31004KT P6SM BKN015
     FM010900 VRB03KT P6SM OVC012
     FM011500 VRB03KT 5SM HZ OVC015
     FM012000 20008KT P6SM SCT250=



000
FTUS46 KLOX 312330
TAFSBP
TAF
KSBP 312330Z 0100/0124 30014KT P6SM SCT150
     FM010300 31009KT P6SM BKN009
     FM010600 30006KT P6SM OVC007
     FM011000 VRB03KT 5SM BR OVC006
     FM011800 31005KT P6SM SCT015
     FM012100 31012KT P6SM SCT250=



000
FTUS46 KLOX 312112 AAA
TAFPRB
TAF AMD
KPRB 312112Z 3121/0118 22012KT P6SM SCT100
     FM312300 20018G25KT P6SM SCT100
     FM010200 20012KT P6SM SCT150
     FM010500 30007KT P6SM SCT250
     FM011100 32006KT P6SM OVC005=



000
FTUS46 KLOX 312031 AAA
TAFLAX
TAF AMD
KLAX 312031Z 3121/0124 26012KT P6SM FEW020 BKN250
     FM010300 24006KT P6SM BKN010
     FM010500 VRB03KT P6SM OVC007
     FM011200 VRB03KT P6SM BKN015
     FM011900 26008KT P6SM SCT015
     FM012100 26012KT P6SM SCT250=



000
FTUS46 KLOX 311930 AAA
TAFSBA
TAF AMD
KSBA 311930Z 3120/0118 17006KT P6SM SCT030 SCT100
     FM312100 25008KT P6SM SCT030 SCT100
     FM010200 VRB03KT P6SM SCT150
     FM010800 VRB03KT 6SM BR OVC010=



000
FTUS46 KLOX 311737
TAFSBA
TAF
KSBA 311737Z 3118/0118 15006KT P6SM SCT030 SCT100
      TEMPO 3118/3120 4SM BR BKN009
     FM312000 25008KT P6SM SCT100
     FM010200 VRB03KT P6SM SCT150
     FM010800 VRB03KT 6SM BR OVC010=



000
FTUS46 KLOX 311737
TAFPRB
TAF
KPRB 311737Z 3118/0118 VRB03KT P6SM SCT100
     FM312100 20012KT P6SM SCT100
     FM312300 20018G25KT P6SM SCT100
     FM010200 20012KT P6SM SCT150
     FM010500 30007KT P6SM SCT250
     FM011100 32006KT P6SM OVC005=



000
FTUS46 KLOX 311737
TAFWJF
TAF
KWJF 311737Z 3118/0118 27008KT P6SM SCT100
     FM312000 23012KT P6SM VCTS BKN050CB BKN100
     FM312300 24018G28KT P6SM VCTS BKN050CB BKN100
     FM010300 23014KT P6SM SCT100
     FM010800 25008KT P6SM SCT250
     FM011200 VRB04KT P6SM SKC=



000
FTUS46 KLOX 311737
TAFSMX
TAF
KSMX 311737Z 3118/0118 32004KT P6SM SCT013 BKN120
     FM311900 30012KT P6SM SCT100 BKN180
     FM010400 VRB03KT P6SM BKN007
     FM010700 VRB03KT 4SM BR OVC004
     FM011100 VRB03KT 2SM BR OVC002=



000
FTUS46 KLOX 311737
TAFPMD
TAF
KPMD 311737Z 3118/0118 VRB03KT P6SM SCT100
     FM312000 23010KT P6SM VCTS BKN050CB BKN100
     FM312300 24015G25KT P6SM VCTS BKN050CB BKN100
     FM010300 23012KT P6SM SCT100
     FM010800 20007KT P6SM SCT250
     FM011200 VRB04KT P6SM SKC=



000
FTUS46 KLOX 311737
TAFLGB
TAF
KLGB 311737Z 3118/0118 VRB03KT P6SM BKN012
     FM311900 19007KT P6SM SCT100
     FM312300 30008KT P6SM SCT100
     FM010500 VRB03KT P6SM SKC
     FM010900 VRB03KT P6SM OVC015=



000
FTUS46 KLOX 311737
TAFBUR
TAF
KBUR 311737Z 3118/0118 12005KT P6SM SCT120
     FM312000 17010KT P6SM SCT100 SCT180
     FM010400 VRB03KT P6SM SKC
     FM011000 VRB03KT P6SM OVC015=



000
FTUS46 KLOX 311737
TAFVNY
TAF
KVNY 311737Z 3118/0118 15006KT P6SM SCT120
     FM312100 14010KT P6SM SCT100 SCT180
     FM010300 VRB03KT P6SM SKC
     FM011000 VRB03KT P6SM OVC012=



000
FTUS46 KLOX 311737
TAFLAX
TAF
KLAX 311737Z 3118/0124 26007KT P6SM BKN015
     FM311900 25012KT P6SM FEW020
     FM010300 24006KT P6SM BKN010
     FM010500 VRB03KT P6SM OVC007
     FM011200 VRB03KT P6SM BKN015
     FM011900 26008KT P6SM SCT015
     FM012100 26012KT P6SM SCT250=



000
FTUS46 KLOX 311737
TAFSBP
TAF
KSBP 311737Z 3118/0118 VRB03KT P6SM SCT100
     FM312000 30014KT P6SM SCT100
     FM010300 31008KT P6SM SKC
     FM010800 VRB03KT P6SM OVC007=



    US Dept of Commerce
    National Oceanic and Atmospheric Administration
    National Weather Service
    1325 East West Highway
    Silver Spring, MD 20910
    Page Author: NWS Internet Services Team
Disclaimer
Information Quality
Credits
Glossary
Privacy Policy
Freedom of Information Act (FOIA)
About Us
Career Opportunities